<?xml version="1.0" encoding="UTF-8" standalone="no" ?>
<gpx xmlns="http://www.topografix.com/GPX/1/1" xmlns:xsi="http://www.w3.org/2001/XMLSchema-instance" xsi:schemaLocation="http://www.topografix.com/GPX/1/1 http://www.topografix.com/GPX/1/1/gpx.xsd" version="1.1" creator="VisuGPX - https://www.visugpx.com">
  <metadata>
    <name>2019-03-28-46-Parnac</name>
    <desc><![CDATA[Randonnée de 11km sans difficulté au travers des vignes, de belles demeures et quelques châteaux et finir aux bords du lot devant le château de Caïx]]></desc>
  </metadata>
  <trk>
    <name><![CDATA[20190329000148-KhCds]]></name>
    <extensions>
      <line xmlns="http://www.topografix.com/GPX/gpx_style/0/2">
        <color>0000FF</color>
        <width>4</width>
      </line>
    </extensions>
    <trkseg>
      <trkpt lat="44.48855" lon="1.31597">
        <ele>110</ele>
        <time>2019-03-28T13:03:52Z</time>
      </trkpt>
      <trkpt lat="44.48855" lon="1.31597">
        <ele>110</ele>
        <time>2019-03-28T13:03:52Z</time>
      </trkpt>
      <trkpt lat="44.48854" lon="1.31589">
        <ele>110</ele>
        <time>2019-03-28T13:03:58Z</time>
      </trkpt>
      <trkpt lat="44.4886" lon="1.31602">
        <ele>110</ele>
        <time>2019-03-28T13:04:02Z</time>
      </trkpt>
      <trkpt lat="44.48866" lon="1.31609">
        <ele>110</ele>
        <time>2019-03-28T13:04:19Z</time>
      </trkpt>
      <trkpt lat="44.48871" lon="1.31619">
        <ele>110.2</ele>
        <time>2019-03-28T13:04:28Z</time>
      </trkpt>
      <trkpt lat="44.48876" lon="1.31628">
        <ele>110.3</ele>
        <time>2019-03-28T13:04:37Z</time>
      </trkpt>
      <trkpt lat="44.4888" lon="1.31638">
        <ele>110.3</ele>
        <time>2019-03-28T13:04:48Z</time>
      </trkpt>
      <trkpt lat="44.48882" lon="1.31648">
        <ele>110.5</ele>
        <time>2019-03-28T13:04:56Z</time>
      </trkpt>
      <trkpt lat="44.48884" lon="1.3166">
        <ele>110.8</ele>
        <time>2019-03-28T13:05:05Z</time>
      </trkpt>
      <trkpt lat="44.48887" lon="1.3167">
        <ele>111</ele>
        <time>2019-03-28T13:05:15Z</time>
      </trkpt>
      <trkpt lat="44.48888" lon="1.3168">
        <ele>111</ele>
        <time>2019-03-28T13:05:22Z</time>
      </trkpt>
      <trkpt lat="44.48887" lon="1.31692">
        <ele>111</ele>
        <time>2019-03-28T13:05:30Z</time>
      </trkpt>
      <trkpt lat="44.48884" lon="1.31702">
        <ele>111.3</ele>
        <time>2019-03-28T13:05:37Z</time>
      </trkpt>
      <trkpt lat="44.48881" lon="1.31712">
        <ele>111.6</ele>
        <time>2019-03-28T13:05:44Z</time>
      </trkpt>
      <trkpt lat="44.48877" lon="1.31722">
        <ele>112</ele>
        <time>2019-03-28T13:05:51Z</time>
      </trkpt>
      <trkpt lat="44.48874" lon="1.31731">
        <ele>112.2</ele>
        <time>2019-03-28T13:05:58Z</time>
      </trkpt>
      <trkpt lat="44.48871" lon="1.31741">
        <ele>112.4</ele>
        <time>2019-03-28T13:06:05Z</time>
      </trkpt>
      <trkpt lat="44.48873" lon="1.31753">
        <ele>112.6</ele>
        <time>2019-03-28T13:06:13Z</time>
      </trkpt>
      <trkpt lat="44.48873" lon="1.31765">
        <ele>112.8</ele>
        <time>2019-03-28T13:06:23Z</time>
      </trkpt>
      <trkpt lat="44.48867" lon="1.31771">
        <ele>112.9</ele>
        <time>2019-03-28T13:06:30Z</time>
      </trkpt>
      <trkpt lat="44.4886" lon="1.31777">
        <ele>113</ele>
        <time>2019-03-28T13:06:37Z</time>
      </trkpt>
      <trkpt lat="44.48852" lon="1.31781">
        <ele>113</ele>
        <time>2019-03-28T13:06:45Z</time>
      </trkpt>
      <trkpt lat="44.48844" lon="1.31783">
        <ele>113.1</ele>
        <time>2019-03-28T13:06:53Z</time>
      </trkpt>
      <trkpt lat="44.48837" lon="1.31788">
        <ele>113.3</ele>
        <time>2019-03-28T13:08:19Z</time>
      </trkpt>
      <trkpt lat="44.48829" lon="1.31791">
        <ele>113.6</ele>
        <time>2019-03-28T13:08:26Z</time>
      </trkpt>
      <trkpt lat="44.48821" lon="1.31795">
        <ele>113.8</ele>
        <time>2019-03-28T13:08:34Z</time>
      </trkpt>
      <trkpt lat="44.48814" lon="1.31799">
        <ele>113.9</ele>
        <time>2019-03-28T13:08:41Z</time>
      </trkpt>
      <trkpt lat="44.48806" lon="1.31802">
        <ele>114</ele>
        <time>2019-03-28T13:08:49Z</time>
      </trkpt>
      <trkpt lat="44.48798" lon="1.31805">
        <ele>114.3</ele>
        <time>2019-03-28T13:08:56Z</time>
      </trkpt>
      <trkpt lat="44.48792" lon="1.31808">
        <ele>114.5</ele>
        <time>2019-03-28T13:09:02Z</time>
      </trkpt>
      <trkpt lat="44.48784" lon="1.31811">
        <ele>114.8</ele>
        <time>2019-03-28T13:09:09Z</time>
      </trkpt>
      <trkpt lat="44.48777" lon="1.31816">
        <ele>115</ele>
        <time>2019-03-28T13:09:17Z</time>
      </trkpt>
      <trkpt lat="44.48768" lon="1.31819">
        <ele>115.4</ele>
        <time>2019-03-28T13:09:26Z</time>
      </trkpt>
      <trkpt lat="44.4876" lon="1.31822">
        <ele>115.6</ele>
        <time>2019-03-28T13:09:34Z</time>
      </trkpt>
      <trkpt lat="44.48752" lon="1.31828">
        <ele>115.9</ele>
        <time>2019-03-28T13:09:42Z</time>
      </trkpt>
      <trkpt lat="44.48745" lon="1.31833">
        <ele>116.5</ele>
        <time>2019-03-28T13:09:49Z</time>
      </trkpt>
      <trkpt lat="44.48737" lon="1.31836">
        <ele>117.5</ele>
        <time>2019-03-28T13:09:56Z</time>
      </trkpt>
      <trkpt lat="44.48729" lon="1.31841">
        <ele>118.3</ele>
        <time>2019-03-28T13:10:04Z</time>
      </trkpt>
      <trkpt lat="44.48723" lon="1.31847">
        <ele>118.9</ele>
        <time>2019-03-28T13:10:11Z</time>
      </trkpt>
      <trkpt lat="44.48717" lon="1.31853">
        <ele>119.4</ele>
        <time>2019-03-28T13:10:17Z</time>
      </trkpt>
      <trkpt lat="44.48712" lon="1.31861">
        <ele>119.7</ele>
        <time>2019-03-28T13:10:24Z</time>
      </trkpt>
      <trkpt lat="44.48706" lon="1.31869">
        <ele>120.2</ele>
        <time>2019-03-28T13:10:32Z</time>
      </trkpt>
      <trkpt lat="44.48699" lon="1.31875">
        <ele>120.7</ele>
        <time>2019-03-28T13:10:39Z</time>
      </trkpt>
      <trkpt lat="44.48692" lon="1.31882">
        <ele>121.1</ele>
        <time>2019-03-28T13:10:46Z</time>
      </trkpt>
      <trkpt lat="44.48684" lon="1.31881">
        <ele>121.5</ele>
        <time>2019-03-28T13:10:59Z</time>
      </trkpt>
      <trkpt lat="44.48676" lon="1.31876">
        <ele>122</ele>
        <time>2019-03-28T13:11:10Z</time>
      </trkpt>
      <trkpt lat="44.48668" lon="1.31871">
        <ele>122.6</ele>
        <time>2019-03-28T13:11:19Z</time>
      </trkpt>
      <trkpt lat="44.48661" lon="1.31868">
        <ele>123</ele>
        <time>2019-03-28T13:11:25Z</time>
      </trkpt>
      <trkpt lat="44.48653" lon="1.31866">
        <ele>123.3</ele>
        <time>2019-03-28T13:11:32Z</time>
      </trkpt>
      <trkpt lat="44.48647" lon="1.31864">
        <ele>123.6</ele>
        <time>2019-03-28T13:11:38Z</time>
      </trkpt>
      <trkpt lat="44.48639" lon="1.31861">
        <ele>124</ele>
        <time>2019-03-28T13:11:44Z</time>
      </trkpt>
      <trkpt lat="44.48631" lon="1.31861">
        <ele>124.3</ele>
        <time>2019-03-28T13:12:00Z</time>
      </trkpt>
      <trkpt lat="44.48623" lon="1.31859">
        <ele>124.8</ele>
        <time>2019-03-28T13:12:07Z</time>
      </trkpt>
      <trkpt lat="44.48617" lon="1.31857">
        <ele>125.2</ele>
        <time>2019-03-28T13:12:12Z</time>
      </trkpt>
      <trkpt lat="44.48608" lon="1.31855">
        <ele>125.7</ele>
        <time>2019-03-28T13:12:19Z</time>
      </trkpt>
      <trkpt lat="44.486" lon="1.31853">
        <ele>125.9</ele>
        <time>2019-03-28T13:12:26Z</time>
      </trkpt>
      <trkpt lat="44.48592" lon="1.31849">
        <ele>126.3</ele>
        <time>2019-03-28T13:12:34Z</time>
      </trkpt>
      <trkpt lat="44.48583" lon="1.31847">
        <ele>126.5</ele>
        <time>2019-03-28T13:12:43Z</time>
      </trkpt>
      <trkpt lat="44.48576" lon="1.31843">
        <ele>127.1</ele>
        <time>2019-03-28T13:12:52Z</time>
      </trkpt>
      <trkpt lat="44.48568" lon="1.31841">
        <ele>127.6</ele>
        <time>2019-03-28T13:12:59Z</time>
      </trkpt>
      <trkpt lat="44.48561" lon="1.31841">
        <ele>127.8</ele>
        <time>2019-03-28T13:13:05Z</time>
      </trkpt>
      <trkpt lat="44.48552" lon="1.31841">
        <ele>127.9</ele>
        <time>2019-03-28T13:13:12Z</time>
      </trkpt>
      <trkpt lat="44.48545" lon="1.31841">
        <ele>128</ele>
        <time>2019-03-28T13:13:18Z</time>
      </trkpt>
      <trkpt lat="44.48536" lon="1.31839">
        <ele>128.3</ele>
        <time>2019-03-28T13:13:26Z</time>
      </trkpt>
      <trkpt lat="44.48528" lon="1.31837">
        <ele>128.6</ele>
        <time>2019-03-28T13:13:34Z</time>
      </trkpt>
      <trkpt lat="44.4852" lon="1.31836">
        <ele>129.2</ele>
        <time>2019-03-28T13:13:41Z</time>
      </trkpt>
      <trkpt lat="44.48511" lon="1.31835">
        <ele>130</ele>
        <time>2019-03-28T13:13:48Z</time>
      </trkpt>
      <trkpt lat="44.48503" lon="1.31834">
        <ele>130.7</ele>
        <time>2019-03-28T13:13:54Z</time>
      </trkpt>
      <trkpt lat="44.48496" lon="1.31831">
        <ele>131.2</ele>
        <time>2019-03-28T13:14:00Z</time>
      </trkpt>
      <trkpt lat="44.48488" lon="1.31828">
        <ele>131.5</ele>
        <time>2019-03-28T13:14:07Z</time>
      </trkpt>
      <trkpt lat="44.4848" lon="1.31828">
        <ele>131.8</ele>
        <time>2019-03-28T13:14:13Z</time>
      </trkpt>
      <trkpt lat="44.48473" lon="1.31828">
        <ele>132</ele>
        <time>2019-03-28T13:14:19Z</time>
      </trkpt>
      <trkpt lat="44.48466" lon="1.31828">
        <ele>132</ele>
        <time>2019-03-28T13:14:25Z</time>
      </trkpt>
      <trkpt lat="44.48458" lon="1.31828">
        <ele>132</ele>
        <time>2019-03-28T13:14:32Z</time>
      </trkpt>
      <trkpt lat="44.4845" lon="1.31828">
        <ele>132</ele>
        <time>2019-03-28T13:14:38Z</time>
      </trkpt>
      <trkpt lat="44.48441" lon="1.31829">
        <ele>132.1</ele>
        <time>2019-03-28T13:14:44Z</time>
      </trkpt>
      <trkpt lat="44.48433" lon="1.31831">
        <ele>132.4</ele>
        <time>2019-03-28T13:14:51Z</time>
      </trkpt>
      <trkpt lat="44.48427" lon="1.31833">
        <ele>132.6</ele>
        <time>2019-03-28T13:14:57Z</time>
      </trkpt>
      <trkpt lat="44.4842" lon="1.31835">
        <ele>132.7</ele>
        <time>2019-03-28T13:15:03Z</time>
      </trkpt>
      <trkpt lat="44.48412" lon="1.31838">
        <ele>132.7</ele>
        <time>2019-03-28T13:15:10Z</time>
      </trkpt>
      <trkpt lat="44.48404" lon="1.31841">
        <ele>132.9</ele>
        <time>2019-03-28T13:15:19Z</time>
      </trkpt>
      <trkpt lat="44.48397" lon="1.31842">
        <ele>133.2</ele>
        <time>2019-03-28T13:15:25Z</time>
      </trkpt>
      <trkpt lat="44.48389" lon="1.31845">
        <ele>133.6</ele>
        <time>2019-03-28T13:15:32Z</time>
      </trkpt>
      <trkpt lat="44.48381" lon="1.31849">
        <ele>133.9</ele>
        <time>2019-03-28T13:15:40Z</time>
      </trkpt>
      <trkpt lat="44.48373" lon="1.31854">
        <ele>134.3</ele>
        <time>2019-03-28T13:15:47Z</time>
      </trkpt>
      <trkpt lat="44.48365" lon="1.31858">
        <ele>134.7</ele>
        <time>2019-03-28T13:15:55Z</time>
      </trkpt>
      <trkpt lat="44.48358" lon="1.3186">
        <ele>135.1</ele>
        <time>2019-03-28T13:16:01Z</time>
      </trkpt>
      <trkpt lat="44.4835" lon="1.31864">
        <ele>135.2</ele>
        <time>2019-03-28T13:16:08Z</time>
      </trkpt>
      <trkpt lat="44.48342" lon="1.31867">
        <ele>135.4</ele>
        <time>2019-03-28T13:16:15Z</time>
      </trkpt>
      <trkpt lat="44.48334" lon="1.31871">
        <ele>135.6</ele>
        <time>2019-03-28T13:18:45Z</time>
      </trkpt>
      <trkpt lat="44.4833" lon="1.31873">
        <ele>135.8</ele>
      </trkpt>
      <trkpt lat="44.48328" lon="1.31876">
        <ele>135.8</ele>
        <time>2019-03-28T13:23:47Z</time>
      </trkpt>
      <trkpt lat="44.48321" lon="1.3188">
        <ele>136.2</ele>
        <time>2019-03-28T13:23:57Z</time>
      </trkpt>
      <trkpt lat="44.48312" lon="1.31882">
        <ele>136.8</ele>
        <time>2019-03-28T13:24:06Z</time>
      </trkpt>
      <trkpt lat="44.48303" lon="1.31883">
        <ele>137.4</ele>
        <time>2019-03-28T13:24:16Z</time>
      </trkpt>
      <trkpt lat="44.48296" lon="1.31879">
        <ele>138</ele>
        <time>2019-03-28T13:24:24Z</time>
      </trkpt>
      <trkpt lat="44.48291" lon="1.31872">
        <ele>138.7</ele>
        <time>2019-03-28T13:24:32Z</time>
      </trkpt>
      <trkpt lat="44.48286" lon="1.31862">
        <ele>139.4</ele>
        <time>2019-03-28T13:24:41Z</time>
      </trkpt>
      <trkpt lat="44.4828" lon="1.31853">
        <ele>140.1</ele>
        <time>2019-03-28T13:24:50Z</time>
      </trkpt>
      <trkpt lat="44.48273" lon="1.31849">
        <ele>140.7</ele>
        <time>2019-03-28T13:24:58Z</time>
      </trkpt>
      <trkpt lat="44.48265" lon="1.31849">
        <ele>141.2</ele>
        <time>2019-03-28T13:25:07Z</time>
      </trkpt>
      <trkpt lat="44.48257" lon="1.31848">
        <ele>141.6</ele>
        <time>2019-03-28T13:25:15Z</time>
      </trkpt>
      <trkpt lat="44.48249" lon="1.31846">
        <ele>142</ele>
        <time>2019-03-28T13:25:24Z</time>
      </trkpt>
      <trkpt lat="44.4824" lon="1.31847">
        <ele>142</ele>
        <time>2019-03-28T13:25:35Z</time>
      </trkpt>
      <trkpt lat="44.48234" lon="1.31841">
        <ele>142</ele>
        <time>2019-03-28T13:25:57Z</time>
      </trkpt>
      <trkpt lat="44.4823" lon="1.3183">
        <ele>142</ele>
        <time>2019-03-28T13:26:05Z</time>
      </trkpt>
      <trkpt lat="44.48226" lon="1.3182">
        <ele>142.1</ele>
        <time>2019-03-28T13:26:12Z</time>
      </trkpt>
      <trkpt lat="44.48222" lon="1.3181">
        <ele>142</ele>
        <time>2019-03-28T13:26:20Z</time>
      </trkpt>
      <trkpt lat="44.48217" lon="1.31801">
        <ele>141.8</ele>
        <time>2019-03-28T13:26:27Z</time>
      </trkpt>
      <trkpt lat="44.48212" lon="1.31792">
        <ele>141.5</ele>
        <time>2019-03-28T13:26:33Z</time>
      </trkpt>
      <trkpt lat="44.48207" lon="1.31783">
        <ele>141</ele>
        <time>2019-03-28T13:26:40Z</time>
      </trkpt>
      <trkpt lat="44.48201" lon="1.31776">
        <ele>140.4</ele>
        <time>2019-03-28T13:26:50Z</time>
      </trkpt>
      <trkpt lat="44.48192" lon="1.31774">
        <ele>139.2</ele>
        <time>2019-03-28T13:27:05Z</time>
      </trkpt>
      <trkpt lat="44.48184" lon="1.3178">
        <ele>137.9</ele>
        <time>2019-03-28T13:27:17Z</time>
      </trkpt>
      <trkpt lat="44.48177" lon="1.31788">
        <ele>136.8</ele>
        <time>2019-03-28T13:27:25Z</time>
      </trkpt>
      <trkpt lat="44.4817" lon="1.31793">
        <ele>135.8</ele>
        <time>2019-03-28T13:27:32Z</time>
      </trkpt>
      <trkpt lat="44.48163" lon="1.31799">
        <ele>134.8</ele>
        <time>2019-03-28T13:27:39Z</time>
      </trkpt>
      <trkpt lat="44.48157" lon="1.31804">
        <ele>134.1</ele>
        <time>2019-03-28T13:27:45Z</time>
      </trkpt>
      <trkpt lat="44.48149" lon="1.31809">
        <ele>132.9</ele>
        <time>2019-03-28T13:27:52Z</time>
      </trkpt>
      <trkpt lat="44.48142" lon="1.31812">
        <ele>131.7</ele>
        <time>2019-03-28T13:27:58Z</time>
      </trkpt>
      <trkpt lat="44.48134" lon="1.31816">
        <ele>131</ele>
        <time>2019-03-28T13:28:06Z</time>
      </trkpt>
      <trkpt lat="44.48125" lon="1.31818">
        <ele>130.4</ele>
        <time>2019-03-28T13:28:14Z</time>
      </trkpt>
      <trkpt lat="44.48118" lon="1.31819">
        <ele>130</ele>
        <time>2019-03-28T13:28:20Z</time>
      </trkpt>
      <trkpt lat="44.4811" lon="1.3182">
        <ele>129.6</ele>
        <time>2019-03-28T13:28:27Z</time>
      </trkpt>
      <trkpt lat="44.48103" lon="1.31824">
        <ele>130.4</ele>
        <time>2019-03-28T13:28:35Z</time>
      </trkpt>
      <trkpt lat="44.48095" lon="1.31828">
        <ele>131.1</ele>
        <time>2019-03-28T13:28:42Z</time>
      </trkpt>
      <trkpt lat="44.48087" lon="1.31831">
        <ele>131.7</ele>
        <time>2019-03-28T13:28:50Z</time>
      </trkpt>
      <trkpt lat="44.4808" lon="1.31834">
        <ele>132.3</ele>
        <time>2019-03-28T13:28:57Z</time>
      </trkpt>
      <trkpt lat="44.48072" lon="1.31838">
        <ele>133.3</ele>
        <time>2019-03-28T13:29:05Z</time>
      </trkpt>
      <trkpt lat="44.48064" lon="1.31842">
        <ele>134.3</ele>
        <time>2019-03-28T13:29:13Z</time>
      </trkpt>
      <trkpt lat="44.48057" lon="1.31845">
        <ele>135.2</ele>
        <time>2019-03-28T13:29:21Z</time>
      </trkpt>
      <trkpt lat="44.4805" lon="1.3185">
        <ele>136.2</ele>
        <time>2019-03-28T13:29:29Z</time>
      </trkpt>
      <trkpt lat="44.48043" lon="1.31853">
        <ele>137</ele>
        <time>2019-03-28T13:29:37Z</time>
      </trkpt>
      <trkpt lat="44.48035" lon="1.31857">
        <ele>138</ele>
        <time>2019-03-28T13:29:47Z</time>
      </trkpt>
      <trkpt lat="44.48028" lon="1.31858">
        <ele>138.6</ele>
        <time>2019-03-28T13:29:54Z</time>
      </trkpt>
      <trkpt lat="44.48019" lon="1.31862">
        <ele>139.4</ele>
        <time>2019-03-28T13:30:05Z</time>
      </trkpt>
      <trkpt lat="44.48012" lon="1.31866">
        <ele>139.9</ele>
        <time>2019-03-28T13:30:15Z</time>
      </trkpt>
      <trkpt lat="44.48006" lon="1.31872">
        <ele>140.6</ele>
        <time>2019-03-28T13:30:23Z</time>
      </trkpt>
      <trkpt lat="44.47999" lon="1.31876">
        <ele>141</ele>
        <time>2019-03-28T13:30:31Z</time>
      </trkpt>
      <trkpt lat="44.47992" lon="1.31881">
        <ele>141.1</ele>
        <time>2019-03-28T13:30:38Z</time>
      </trkpt>
      <trkpt lat="44.47985" lon="1.31886">
        <ele>141.3</ele>
        <time>2019-03-28T13:30:45Z</time>
      </trkpt>
      <trkpt lat="44.47979" lon="1.31893">
        <ele>141.5</ele>
        <time>2019-03-28T13:30:52Z</time>
      </trkpt>
      <trkpt lat="44.47974" lon="1.31902">
        <ele>142</ele>
        <time>2019-03-28T13:30:59Z</time>
      </trkpt>
      <trkpt lat="44.47968" lon="1.3191">
        <ele>142.1</ele>
        <time>2019-03-28T13:31:06Z</time>
      </trkpt>
      <trkpt lat="44.47962" lon="1.31919">
        <ele>142</ele>
        <time>2019-03-28T13:31:13Z</time>
      </trkpt>
      <trkpt lat="44.47957" lon="1.31927">
        <ele>141.9</ele>
        <time>2019-03-28T13:31:20Z</time>
      </trkpt>
      <trkpt lat="44.47951" lon="1.31935">
        <ele>141.9</ele>
        <time>2019-03-28T13:31:27Z</time>
      </trkpt>
      <trkpt lat="44.47944" lon="1.31943">
        <ele>141.8</ele>
        <time>2019-03-28T13:31:34Z</time>
      </trkpt>
      <trkpt lat="44.47938" lon="1.31951">
        <ele>141.2</ele>
        <time>2019-03-28T13:31:41Z</time>
      </trkpt>
      <trkpt lat="44.47933" lon="1.31959">
        <ele>140.9</ele>
        <time>2019-03-28T13:31:48Z</time>
      </trkpt>
      <trkpt lat="44.47926" lon="1.31967">
        <ele>140.6</ele>
        <time>2019-03-28T13:31:55Z</time>
      </trkpt>
      <trkpt lat="44.47919" lon="1.31975">
        <ele>140.4</ele>
        <time>2019-03-28T13:32:02Z</time>
      </trkpt>
      <trkpt lat="44.47913" lon="1.31983">
        <ele>140</ele>
        <time>2019-03-28T13:32:09Z</time>
      </trkpt>
      <trkpt lat="44.47906" lon="1.31989">
        <ele>139.5</ele>
        <time>2019-03-28T13:32:15Z</time>
      </trkpt>
      <trkpt lat="44.479" lon="1.31995">
        <ele>139.4</ele>
        <time>2019-03-28T13:32:21Z</time>
      </trkpt>
      <trkpt lat="44.47894" lon="1.32001">
        <ele>139.4</ele>
        <time>2019-03-28T13:32:27Z</time>
      </trkpt>
      <trkpt lat="44.47888" lon="1.32007">
        <ele>139.1</ele>
        <time>2019-03-28T13:32:33Z</time>
      </trkpt>
      <trkpt lat="44.47882" lon="1.32013">
        <ele>138.2</ele>
        <time>2019-03-28T13:32:39Z</time>
      </trkpt>
      <trkpt lat="44.47875" lon="1.32021">
        <ele>137.5</ele>
        <time>2019-03-28T13:32:47Z</time>
      </trkpt>
      <trkpt lat="44.47868" lon="1.32026">
        <ele>136.8</ele>
        <time>2019-03-28T13:32:54Z</time>
      </trkpt>
      <trkpt lat="44.47862" lon="1.32033">
        <ele>136.5</ele>
        <time>2019-03-28T13:33:00Z</time>
      </trkpt>
      <trkpt lat="44.47857" lon="1.32041">
        <ele>136.4</ele>
        <time>2019-03-28T13:33:06Z</time>
      </trkpt>
      <trkpt lat="44.47852" lon="1.3205">
        <ele>136.3</ele>
        <time>2019-03-28T13:33:12Z</time>
      </trkpt>
      <trkpt lat="44.47846" lon="1.32058">
        <ele>136</ele>
        <time>2019-03-28T13:33:18Z</time>
      </trkpt>
      <trkpt lat="44.47841" lon="1.32065">
        <ele>136</ele>
        <time>2019-03-28T13:33:24Z</time>
      </trkpt>
      <trkpt lat="44.47834" lon="1.32073">
        <ele>136</ele>
        <time>2019-03-28T13:33:41Z</time>
      </trkpt>
      <trkpt lat="44.47828" lon="1.32081">
        <ele>136</ele>
        <time>2019-03-28T13:40:15Z</time>
      </trkpt>
      <trkpt lat="44.47821" lon="1.32089">
        <ele>136</ele>
        <time>2019-03-28T13:40:24Z</time>
      </trkpt>
      <trkpt lat="44.47815" lon="1.32097">
        <ele>136.5</ele>
        <time>2019-03-28T13:40:32Z</time>
      </trkpt>
      <trkpt lat="44.47809" lon="1.32104">
        <ele>137</ele>
        <time>2019-03-28T13:40:39Z</time>
      </trkpt>
      <trkpt lat="44.47804" lon="1.3211">
        <ele>137.6</ele>
        <time>2019-03-28T13:40:45Z</time>
      </trkpt>
      <trkpt lat="44.47798" lon="1.32116">
        <ele>137.4</ele>
        <time>2019-03-28T13:40:51Z</time>
      </trkpt>
      <trkpt lat="44.47791" lon="1.32122">
        <ele>137.1</ele>
        <time>2019-03-28T13:40:59Z</time>
      </trkpt>
      <trkpt lat="44.47785" lon="1.32126">
        <ele>136.9</ele>
        <time>2019-03-28T13:42:30Z</time>
      </trkpt>
      <trkpt lat="44.47779" lon="1.32132">
        <ele>137.1</ele>
        <time>2019-03-28T13:42:37Z</time>
      </trkpt>
      <trkpt lat="44.47773" lon="1.3214">
        <ele>137.5</ele>
        <time>2019-03-28T13:42:45Z</time>
      </trkpt>
      <trkpt lat="44.47766" lon="1.32148">
        <ele>137.1</ele>
        <time>2019-03-28T13:42:52Z</time>
      </trkpt>
      <trkpt lat="44.4776" lon="1.32154">
        <ele>136.6</ele>
        <time>2019-03-28T13:42:57Z</time>
      </trkpt>
      <trkpt lat="44.47753" lon="1.3216">
        <ele>136.1</ele>
        <time>2019-03-28T13:43:13Z</time>
      </trkpt>
      <trkpt lat="44.47745" lon="1.32164">
        <ele>135.7</ele>
        <time>2019-03-28T13:43:20Z</time>
      </trkpt>
      <trkpt lat="44.47739" lon="1.32169">
        <ele>135.6</ele>
        <time>2019-03-28T13:43:25Z</time>
      </trkpt>
      <trkpt lat="44.47735" lon="1.32177">
        <ele>135.7</ele>
        <time>2019-03-28T13:43:30Z</time>
      </trkpt>
      <trkpt lat="44.47733" lon="1.32188">
        <ele>135.9</ele>
        <time>2019-03-28T13:43:36Z</time>
      </trkpt>
      <trkpt lat="44.4773" lon="1.32199">
        <ele>136</ele>
        <time>2019-03-28T13:43:42Z</time>
      </trkpt>
      <trkpt lat="44.47728" lon="1.32209">
        <ele>136.1</ele>
        <time>2019-03-28T13:43:47Z</time>
      </trkpt>
      <trkpt lat="44.47726" lon="1.32221">
        <ele>136.1</ele>
        <time>2019-03-28T13:43:53Z</time>
      </trkpt>
      <trkpt lat="44.47725" lon="1.32232">
        <ele>136.5</ele>
        <time>2019-03-28T13:43:59Z</time>
      </trkpt>
      <trkpt lat="44.47723" lon="1.32244">
        <ele>136.8</ele>
        <time>2019-03-28T13:44:05Z</time>
      </trkpt>
      <trkpt lat="44.47723" lon="1.32255">
        <ele>137.4</ele>
        <time>2019-03-28T13:44:12Z</time>
      </trkpt>
      <trkpt lat="44.47722" lon="1.32266">
        <ele>138.2</ele>
        <time>2019-03-28T13:44:18Z</time>
      </trkpt>
      <trkpt lat="44.47721" lon="1.32277">
        <ele>138.9</ele>
        <time>2019-03-28T13:44:24Z</time>
      </trkpt>
      <trkpt lat="44.47717" lon="1.32288">
        <ele>139.5</ele>
        <time>2019-03-28T13:44:31Z</time>
      </trkpt>
      <trkpt lat="44.47715" lon="1.32298">
        <ele>140</ele>
        <time>2019-03-28T13:44:37Z</time>
      </trkpt>
      <trkpt lat="44.47714" lon="1.32308">
        <ele>140.6</ele>
        <time>2019-03-28T13:44:43Z</time>
      </trkpt>
      <trkpt lat="44.47712" lon="1.32316">
        <ele>141.1</ele>
        <time>2019-03-28T13:44:47Z</time>
      </trkpt>
      <trkpt lat="44.4771" lon="1.32327">
        <ele>141.8</ele>
        <time>2019-03-28T13:44:52Z</time>
      </trkpt>
      <trkpt lat="44.47706" lon="1.32335">
        <ele>141.8</ele>
        <time>2019-03-28T13:44:57Z</time>
      </trkpt>
      <trkpt lat="44.47705" lon="1.32346">
        <ele>142.3</ele>
        <time>2019-03-28T13:45:04Z</time>
      </trkpt>
      <trkpt lat="44.47703" lon="1.32355">
        <ele>142.5</ele>
        <time>2019-03-28T13:45:09Z</time>
      </trkpt>
      <trkpt lat="44.477" lon="1.32365">
        <ele>142.7</ele>
        <time>2019-03-28T13:45:15Z</time>
      </trkpt>
      <trkpt lat="44.47697" lon="1.32375">
        <ele>143.5</ele>
        <time>2019-03-28T13:45:21Z</time>
      </trkpt>
      <trkpt lat="44.47694" lon="1.32385">
        <ele>144.4</ele>
        <time>2019-03-28T13:45:27Z</time>
      </trkpt>
      <trkpt lat="44.47692" lon="1.32396">
        <ele>145</ele>
        <time>2019-03-28T13:45:33Z</time>
      </trkpt>
      <trkpt lat="44.47689" lon="1.32406">
        <ele>145.1</ele>
        <time>2019-03-28T13:45:39Z</time>
      </trkpt>
      <trkpt lat="44.47686" lon="1.32416">
        <ele>145.4</ele>
        <time>2019-03-28T13:45:45Z</time>
      </trkpt>
      <trkpt lat="44.47683" lon="1.32425">
        <ele>145.5</ele>
        <time>2019-03-28T13:45:50Z</time>
      </trkpt>
      <trkpt lat="44.47679" lon="1.32436">
        <ele>145.6</ele>
        <time>2019-03-28T13:45:57Z</time>
      </trkpt>
      <trkpt lat="44.47677" lon="1.32446">
        <ele>145.8</ele>
        <time>2019-03-28T13:46:03Z</time>
      </trkpt>
      <trkpt lat="44.47674" lon="1.32457">
        <ele>145.6</ele>
        <time>2019-03-28T13:46:09Z</time>
      </trkpt>
      <trkpt lat="44.4767" lon="1.32468">
        <ele>145.3</ele>
        <time>2019-03-28T13:46:15Z</time>
      </trkpt>
      <trkpt lat="44.47668" lon="1.32478">
        <ele>145.3</ele>
        <time>2019-03-28T13:46:21Z</time>
      </trkpt>
      <trkpt lat="44.47666" lon="1.3249">
        <ele>145.6</ele>
        <time>2019-03-28T13:46:27Z</time>
      </trkpt>
      <trkpt lat="44.47665" lon="1.325">
        <ele>145.9</ele>
        <time>2019-03-28T13:46:32Z</time>
      </trkpt>
      <trkpt lat="44.47663" lon="1.32511">
        <ele>145.9</ele>
        <time>2019-03-28T13:46:38Z</time>
      </trkpt>
      <trkpt lat="44.4766" lon="1.32519">
        <ele>145.9</ele>
        <time>2019-03-28T13:46:43Z</time>
      </trkpt>
      <trkpt lat="44.47657" lon="1.32531">
        <ele>146.1</ele>
        <time>2019-03-28T13:46:49Z</time>
      </trkpt>
      <trkpt lat="44.47655" lon="1.32543">
        <ele>146.3</ele>
        <time>2019-03-28T13:46:56Z</time>
      </trkpt>
      <trkpt lat="44.47654" lon="1.32552">
        <ele>146.5</ele>
        <time>2019-03-28T13:47:01Z</time>
      </trkpt>
      <trkpt lat="44.47654" lon="1.32562">
        <ele>146.8</ele>
        <time>2019-03-28T13:47:06Z</time>
      </trkpt>
      <trkpt lat="44.47653" lon="1.32573">
        <ele>147.1</ele>
        <time>2019-03-28T13:47:12Z</time>
      </trkpt>
      <trkpt lat="44.47651" lon="1.32584">
        <ele>147.4</ele>
        <time>2019-03-28T13:47:18Z</time>
      </trkpt>
      <trkpt lat="44.4765" lon="1.32595">
        <ele>147.7</ele>
        <time>2019-03-28T13:47:24Z</time>
      </trkpt>
      <trkpt lat="44.47648" lon="1.32607">
        <ele>147.9</ele>
        <time>2019-03-28T13:47:31Z</time>
      </trkpt>
      <trkpt lat="44.47647" lon="1.32618">
        <ele>148.1</ele>
        <time>2019-03-28T13:47:38Z</time>
      </trkpt>
      <trkpt lat="44.47643" lon="1.32629">
        <ele>148.1</ele>
        <time>2019-03-28T13:47:47Z</time>
      </trkpt>
      <trkpt lat="44.47635" lon="1.32636">
        <ele>148</ele>
        <time>2019-03-28T13:51:59Z</time>
      </trkpt>
      <trkpt lat="44.47627" lon="1.32638">
        <ele>148</ele>
        <time>2019-03-28T13:52:08Z</time>
      </trkpt>
      <trkpt lat="44.4762" lon="1.32642">
        <ele>148.1</ele>
        <time>2019-03-28T13:52:14Z</time>
      </trkpt>
      <trkpt lat="44.47612" lon="1.32647">
        <ele>148.3</ele>
        <time>2019-03-28T13:52:21Z</time>
      </trkpt>
      <trkpt lat="44.47604" lon="1.32652">
        <ele>148.5</ele>
        <time>2019-03-28T13:52:32Z</time>
      </trkpt>
      <trkpt lat="44.47596" lon="1.32655">
        <ele>148.6</ele>
        <time>2019-03-28T13:52:40Z</time>
      </trkpt>
      <trkpt lat="44.47587" lon="1.32658">
        <ele>148.7</ele>
        <time>2019-03-28T13:52:47Z</time>
      </trkpt>
      <trkpt lat="44.47579" lon="1.32658">
        <ele>148.7</ele>
        <time>2019-03-28T13:52:53Z</time>
      </trkpt>
      <trkpt lat="44.47571" lon="1.32659">
        <ele>148.7</ele>
        <time>2019-03-28T13:53:00Z</time>
      </trkpt>
      <trkpt lat="44.47564" lon="1.32659">
        <ele>148.7</ele>
        <time>2019-03-28T13:53:06Z</time>
      </trkpt>
      <trkpt lat="44.47556" lon="1.32657">
        <ele>148.7</ele>
        <time>2019-03-28T13:53:13Z</time>
      </trkpt>
      <trkpt lat="44.47548" lon="1.32654">
        <ele>148.7</ele>
        <time>2019-03-28T13:53:20Z</time>
      </trkpt>
      <trkpt lat="44.47541" lon="1.32647">
        <ele>148.7</ele>
        <time>2019-03-28T13:53:29Z</time>
      </trkpt>
      <trkpt lat="44.47533" lon="1.32643">
        <ele>148.8</ele>
        <time>2019-03-28T13:53:37Z</time>
      </trkpt>
      <trkpt lat="44.47525" lon="1.32638">
        <ele>149.1</ele>
        <time>2019-03-28T13:53:45Z</time>
      </trkpt>
      <trkpt lat="44.47518" lon="1.32636">
        <ele>149.3</ele>
        <time>2019-03-28T13:53:52Z</time>
      </trkpt>
      <trkpt lat="44.4751" lon="1.32631">
        <ele>149.5</ele>
        <time>2019-03-28T13:53:59Z</time>
      </trkpt>
      <trkpt lat="44.47502" lon="1.32626">
        <ele>149.5</ele>
        <time>2019-03-28T13:54:06Z</time>
      </trkpt>
      <trkpt lat="44.47494" lon="1.32623">
        <ele>149.6</ele>
        <time>2019-03-28T13:54:12Z</time>
      </trkpt>
      <trkpt lat="44.47486" lon="1.32618">
        <ele>149.6</ele>
        <time>2019-03-28T13:54:18Z</time>
      </trkpt>
      <trkpt lat="44.4748" lon="1.32612">
        <ele>149.7</ele>
        <time>2019-03-28T13:54:24Z</time>
      </trkpt>
      <trkpt lat="44.47472" lon="1.32607">
        <ele>149.8</ele>
        <time>2019-03-28T13:54:30Z</time>
      </trkpt>
      <trkpt lat="44.47465" lon="1.32604">
        <ele>149.5</ele>
        <time>2019-03-28T13:54:39Z</time>
      </trkpt>
      <trkpt lat="44.47457" lon="1.32598">
        <ele>149</ele>
        <time>2019-03-28T13:54:45Z</time>
      </trkpt>
      <trkpt lat="44.47449" lon="1.32593">
        <ele>148.5</ele>
        <time>2019-03-28T13:54:51Z</time>
      </trkpt>
      <trkpt lat="44.47441" lon="1.32587">
        <ele>148.2</ele>
        <time>2019-03-28T13:54:57Z</time>
      </trkpt>
      <trkpt lat="44.47434" lon="1.32582">
        <ele>148.3</ele>
        <time>2019-03-28T13:55:03Z</time>
      </trkpt>
      <trkpt lat="44.47427" lon="1.32578">
        <ele>148.4</ele>
        <time>2019-03-28T13:55:09Z</time>
      </trkpt>
      <trkpt lat="44.47421" lon="1.32574">
        <ele>148.5</ele>
        <time>2019-03-28T13:55:15Z</time>
      </trkpt>
      <trkpt lat="44.47413" lon="1.3257">
        <ele>148.7</ele>
        <time>2019-03-28T13:55:22Z</time>
      </trkpt>
      <trkpt lat="44.47406" lon="1.32567">
        <ele>148.8</ele>
        <time>2019-03-28T13:55:27Z</time>
      </trkpt>
      <trkpt lat="44.47399" lon="1.32565">
        <ele>149</ele>
        <time>2019-03-28T13:55:33Z</time>
      </trkpt>
      <trkpt lat="44.47392" lon="1.3256">
        <ele>149</ele>
        <time>2019-03-28T13:55:39Z</time>
      </trkpt>
      <trkpt lat="44.47386" lon="1.32555">
        <ele>149</ele>
        <time>2019-03-28T13:55:44Z</time>
      </trkpt>
      <trkpt lat="44.47378" lon="1.32549">
        <ele>148.8</ele>
        <time>2019-03-28T13:55:51Z</time>
      </trkpt>
      <trkpt lat="44.4737" lon="1.32546">
        <ele>148.7</ele>
        <time>2019-03-28T13:55:59Z</time>
      </trkpt>
      <trkpt lat="44.47362" lon="1.32548">
        <ele>148.7</ele>
        <time>2019-03-28T13:56:06Z</time>
      </trkpt>
      <trkpt lat="44.47355" lon="1.32555">
        <ele>148.5</ele>
        <time>2019-03-28T13:56:13Z</time>
      </trkpt>
      <trkpt lat="44.4735" lon="1.32564">
        <ele>148.5</ele>
        <time>2019-03-28T13:56:19Z</time>
      </trkpt>
      <trkpt lat="44.47347" lon="1.32575">
        <ele>148.7</ele>
        <time>2019-03-28T13:56:24Z</time>
      </trkpt>
      <trkpt lat="44.47345" lon="1.32583">
        <ele>148.8</ele>
        <time>2019-03-28T13:56:29Z</time>
      </trkpt>
      <trkpt lat="44.47342" lon="1.32592">
        <ele>149.2</ele>
        <time>2019-03-28T13:56:35Z</time>
      </trkpt>
      <trkpt lat="44.47339" lon="1.32603">
        <ele>149.7</ele>
        <time>2019-03-28T13:56:42Z</time>
      </trkpt>
      <trkpt lat="44.47337" lon="1.32614">
        <ele>150.3</ele>
        <time>2019-03-28T13:56:49Z</time>
      </trkpt>
      <trkpt lat="44.47337" lon="1.32626">
        <ele>151.1</ele>
        <time>2019-03-28T13:56:57Z</time>
      </trkpt>
      <trkpt lat="44.47335" lon="1.32637">
        <ele>151.9</ele>
        <time>2019-03-28T13:57:04Z</time>
      </trkpt>
      <trkpt lat="44.47334" lon="1.32649">
        <ele>152.4</ele>
        <time>2019-03-28T13:57:11Z</time>
      </trkpt>
      <trkpt lat="44.47333" lon="1.32658">
        <ele>152.7</ele>
        <time>2019-03-28T13:57:16Z</time>
      </trkpt>
      <trkpt lat="44.47332" lon="1.3267">
        <ele>153</ele>
        <time>2019-03-28T13:57:23Z</time>
      </trkpt>
      <trkpt lat="44.47332" lon="1.32676">
        <ele>153.2</ele>
      </trkpt>
      <trkpt lat="44.47331" lon="1.32683">
        <ele>153.4</ele>
      </trkpt>
      <trkpt lat="44.47331" lon="1.32688">
        <ele>153.6</ele>
      </trkpt>
      <trkpt lat="44.47331" lon="1.32692">
        <ele>153.7</ele>
      </trkpt>
      <trkpt lat="44.47336" lon="1.32697">
        <ele>154</ele>
      </trkpt>
      <trkpt lat="44.47338" lon="1.32697">
        <ele>154</ele>
      </trkpt>
      <trkpt lat="44.47341" lon="1.32698">
        <ele>154</ele>
      </trkpt>
      <trkpt lat="44.47343" lon="1.32695">
        <ele>154</ele>
      </trkpt>
      <trkpt lat="44.47346" lon="1.32694">
        <ele>154</ele>
      </trkpt>
      <trkpt lat="44.47351" lon="1.32699">
        <ele>154</ele>
      </trkpt>
      <trkpt lat="44.4735" lon="1.32708">
        <ele>154</ele>
      </trkpt>
      <trkpt lat="44.47353" lon="1.32703">
        <ele>154</ele>
      </trkpt>
      <trkpt lat="44.47347" lon="1.32713">
        <ele>154</ele>
      </trkpt>
      <trkpt lat="44.47345" lon="1.32706">
        <ele>154</ele>
      </trkpt>
      <trkpt lat="44.47342" lon="1.3271">
        <ele>154</ele>
      </trkpt>
      <trkpt lat="44.47339" lon="1.32714">
        <ele>154</ele>
      </trkpt>
      <trkpt lat="44.47336" lon="1.32716">
        <ele>154</ele>
      </trkpt>
      <trkpt lat="44.47337" lon="1.32713">
        <ele>154</ele>
      </trkpt>
      <trkpt lat="44.47336" lon="1.32707">
        <ele>154</ele>
      </trkpt>
      <trkpt lat="44.47334" lon="1.32706">
        <ele>154</ele>
      </trkpt>
      <trkpt lat="44.4733" lon="1.32703">
        <ele>153.8</ele>
      </trkpt>
      <trkpt lat="44.47329" lon="1.32708">
        <ele>153.8</ele>
      </trkpt>
      <trkpt lat="44.47325" lon="1.32714">
        <ele>153.6</ele>
      </trkpt>
      <trkpt lat="44.47323" lon="1.32718">
        <ele>153.6</ele>
      </trkpt>
      <trkpt lat="44.47322" lon="1.32722">
        <ele>153.6</ele>
      </trkpt>
      <trkpt lat="44.47321" lon="1.32726">
        <ele>153.6</ele>
      </trkpt>
      <trkpt lat="44.47321" lon="1.32724">
        <ele>153.6</ele>
      </trkpt>
      <trkpt lat="44.47318" lon="1.32723">
        <ele>153.5</ele>
      </trkpt>
      <trkpt lat="44.47316" lon="1.32723">
        <ele>153.4</ele>
        <time>2019-03-28T14:03:57Z</time>
      </trkpt>
      <trkpt lat="44.47307" lon="1.32721">
        <ele>153</ele>
        <time>2019-03-28T14:04:04Z</time>
      </trkpt>
      <trkpt lat="44.47299" lon="1.3272">
        <ele>152.7</ele>
        <time>2019-03-28T14:04:11Z</time>
      </trkpt>
      <trkpt lat="44.47291" lon="1.32718">
        <ele>152.3</ele>
        <time>2019-03-28T14:04:18Z</time>
      </trkpt>
      <trkpt lat="44.47283" lon="1.32717">
        <ele>152</ele>
        <time>2019-03-28T14:04:25Z</time>
      </trkpt>
      <trkpt lat="44.47276" lon="1.32715">
        <ele>151.8</ele>
        <time>2019-03-28T14:04:31Z</time>
      </trkpt>
      <trkpt lat="44.47269" lon="1.32713">
        <ele>151.8</ele>
        <time>2019-03-28T14:04:37Z</time>
      </trkpt>
      <trkpt lat="44.47262" lon="1.32714">
        <ele>151.9</ele>
        <time>2019-03-28T14:04:43Z</time>
      </trkpt>
      <trkpt lat="44.47254" lon="1.32714">
        <ele>152</ele>
        <time>2019-03-28T14:04:49Z</time>
      </trkpt>
      <trkpt lat="44.47247" lon="1.32714">
        <ele>152.1</ele>
        <time>2019-03-28T14:04:55Z</time>
      </trkpt>
      <trkpt lat="44.47239" lon="1.32714">
        <ele>152.4</ele>
        <time>2019-03-28T14:05:03Z</time>
      </trkpt>
      <trkpt lat="44.4723" lon="1.32714">
        <ele>152.7</ele>
        <time>2019-03-28T14:05:11Z</time>
      </trkpt>
      <trkpt lat="44.47222" lon="1.32713">
        <ele>153</ele>
        <time>2019-03-28T14:05:19Z</time>
      </trkpt>
      <trkpt lat="44.47214" lon="1.32712">
        <ele>153.8</ele>
        <time>2019-03-28T14:05:27Z</time>
      </trkpt>
      <trkpt lat="44.47207" lon="1.32711">
        <ele>154.4</ele>
        <time>2019-03-28T14:05:33Z</time>
      </trkpt>
      <trkpt lat="44.472" lon="1.3271">
        <ele>155</ele>
        <time>2019-03-28T14:05:39Z</time>
      </trkpt>
      <trkpt lat="44.47192" lon="1.32709">
        <ele>155.8</ele>
        <time>2019-03-28T14:05:46Z</time>
      </trkpt>
      <trkpt lat="44.47186" lon="1.32708">
        <ele>156.4</ele>
        <time>2019-03-28T14:05:51Z</time>
      </trkpt>
      <trkpt lat="44.47178" lon="1.32706">
        <ele>157.2</ele>
        <time>2019-03-28T14:05:57Z</time>
      </trkpt>
      <trkpt lat="44.47169" lon="1.32707">
        <ele>158.2</ele>
        <time>2019-03-28T14:06:05Z</time>
      </trkpt>
      <trkpt lat="44.47162" lon="1.32706">
        <ele>159.1</ele>
        <time>2019-03-28T14:06:13Z</time>
      </trkpt>
      <trkpt lat="44.47154" lon="1.32706">
        <ele>160.2</ele>
        <time>2019-03-28T14:06:21Z</time>
      </trkpt>
      <trkpt lat="44.47146" lon="1.32705">
        <ele>161.4</ele>
        <time>2019-03-28T14:06:29Z</time>
      </trkpt>
      <trkpt lat="44.47138" lon="1.32703">
        <ele>162.5</ele>
        <time>2019-03-28T14:06:38Z</time>
      </trkpt>
      <trkpt lat="44.47129" lon="1.32702">
        <ele>164.1</ele>
        <time>2019-03-28T14:06:47Z</time>
      </trkpt>
      <trkpt lat="44.47121" lon="1.327">
        <ele>165.5</ele>
        <time>2019-03-28T14:06:57Z</time>
      </trkpt>
      <trkpt lat="44.47113" lon="1.32697">
        <ele>166.8</ele>
        <time>2019-03-28T14:07:06Z</time>
      </trkpt>
      <trkpt lat="44.4711" lon="1.32687">
        <ele>167.1</ele>
        <time>2019-03-28T14:10:50Z</time>
      </trkpt>
      <trkpt lat="44.47109" lon="1.32675">
        <ele>167</ele>
        <time>2019-03-28T14:11:53Z</time>
      </trkpt>
      <trkpt lat="44.4711" lon="1.32664">
        <ele>166.3</ele>
        <time>2019-03-28T14:12:02Z</time>
      </trkpt>
      <trkpt lat="44.47111" lon="1.32651">
        <ele>165.5</ele>
        <time>2019-03-28T14:12:09Z</time>
      </trkpt>
      <trkpt lat="44.47112" lon="1.3264">
        <ele>164.9</ele>
        <time>2019-03-28T14:12:16Z</time>
      </trkpt>
      <trkpt lat="44.47111" lon="1.32628">
        <ele>164.6</ele>
        <time>2019-03-28T14:12:23Z</time>
      </trkpt>
      <trkpt lat="44.47111" lon="1.32616">
        <ele>164.2</ele>
        <time>2019-03-28T14:12:36Z</time>
      </trkpt>
      <trkpt lat="44.47109" lon="1.32604">
        <ele>164.4</ele>
        <time>2019-03-28T14:12:54Z</time>
      </trkpt>
      <trkpt lat="44.47109" lon="1.32593">
        <ele>164</ele>
        <time>2019-03-28T14:13:03Z</time>
      </trkpt>
      <trkpt lat="44.47106" lon="1.32584">
        <ele>164.7</ele>
        <time>2019-03-28T14:13:09Z</time>
      </trkpt>
      <trkpt lat="44.47102" lon="1.32575">
        <ele>165.6</ele>
        <time>2019-03-28T14:13:15Z</time>
      </trkpt>
      <trkpt lat="44.47099" lon="1.32563">
        <ele>165.9</ele>
        <time>2019-03-28T14:13:22Z</time>
      </trkpt>
      <trkpt lat="44.47097" lon="1.32553">
        <ele>166</ele>
        <time>2019-03-28T14:13:27Z</time>
      </trkpt>
      <trkpt lat="44.47097" lon="1.32543">
        <ele>165.8</ele>
        <time>2019-03-28T14:13:33Z</time>
      </trkpt>
      <trkpt lat="44.47095" lon="1.32532">
        <ele>166.1</ele>
        <time>2019-03-28T14:13:39Z</time>
      </trkpt>
      <trkpt lat="44.47096" lon="1.3252">
        <ele>165.7</ele>
        <time>2019-03-28T14:13:47Z</time>
      </trkpt>
      <trkpt lat="44.47096" lon="1.32508">
        <ele>165.5</ele>
        <time>2019-03-28T14:13:54Z</time>
      </trkpt>
      <trkpt lat="44.47097" lon="1.32497">
        <ele>165</ele>
        <time>2019-03-28T14:14:01Z</time>
      </trkpt>
      <trkpt lat="44.47099" lon="1.32485">
        <ele>163.9</ele>
        <time>2019-03-28T14:14:08Z</time>
      </trkpt>
      <trkpt lat="44.47097" lon="1.32474">
        <ele>164.1</ele>
        <time>2019-03-28T14:14:14Z</time>
      </trkpt>
      <trkpt lat="44.47097" lon="1.32462">
        <ele>164.1</ele>
        <time>2019-03-28T14:14:20Z</time>
      </trkpt>
      <trkpt lat="44.47097" lon="1.32452">
        <ele>164.1</ele>
        <time>2019-03-28T14:14:25Z</time>
      </trkpt>
      <trkpt lat="44.47097" lon="1.32441">
        <ele>164.1</ele>
        <time>2019-03-28T14:14:31Z</time>
      </trkpt>
      <trkpt lat="44.471" lon="1.32429">
        <ele>163.1</ele>
        <time>2019-03-28T14:14:37Z</time>
      </trkpt>
      <trkpt lat="44.47103" lon="1.32419">
        <ele>162</ele>
        <time>2019-03-28T14:14:43Z</time>
      </trkpt>
      <trkpt lat="44.47108" lon="1.3241">
        <ele>160.6</ele>
        <time>2019-03-28T14:14:49Z</time>
      </trkpt>
      <trkpt lat="44.47111" lon="1.32403">
        <ele>160</ele>
        <time>2019-03-28T14:14:54Z</time>
      </trkpt>
      <trkpt lat="44.47115" lon="1.32392">
        <ele>159.8</ele>
        <time>2019-03-28T14:15:00Z</time>
      </trkpt>
      <trkpt lat="44.47117" lon="1.32383">
        <ele>159.5</ele>
        <time>2019-03-28T14:15:05Z</time>
      </trkpt>
      <trkpt lat="44.47119" lon="1.32372">
        <ele>159</ele>
        <time>2019-03-28T14:15:11Z</time>
      </trkpt>
      <trkpt lat="44.47121" lon="1.3236">
        <ele>158.6</ele>
        <time>2019-03-28T14:15:18Z</time>
      </trkpt>
      <trkpt lat="44.47123" lon="1.3235">
        <ele>158.6</ele>
        <time>2019-03-28T14:15:24Z</time>
      </trkpt>
      <trkpt lat="44.47125" lon="1.32337">
        <ele>158.8</ele>
        <time>2019-03-28T14:15:31Z</time>
      </trkpt>
      <trkpt lat="44.47126" lon="1.32327">
        <ele>158.8</ele>
        <time>2019-03-28T14:15:37Z</time>
      </trkpt>
      <trkpt lat="44.47128" lon="1.32317">
        <ele>158.4</ele>
        <time>2019-03-28T14:15:43Z</time>
      </trkpt>
      <trkpt lat="44.47128" lon="1.32306">
        <ele>158.5</ele>
        <time>2019-03-28T14:15:49Z</time>
      </trkpt>
      <trkpt lat="44.47129" lon="1.32295">
        <ele>158.3</ele>
        <time>2019-03-28T14:15:55Z</time>
      </trkpt>
      <trkpt lat="44.47131" lon="1.32284">
        <ele>157.8</ele>
        <time>2019-03-28T14:16:01Z</time>
      </trkpt>
      <trkpt lat="44.47133" lon="1.32272">
        <ele>157.3</ele>
        <time>2019-03-28T14:16:08Z</time>
      </trkpt>
      <trkpt lat="44.47133" lon="1.3226">
        <ele>157.6</ele>
        <time>2019-03-28T14:16:15Z</time>
      </trkpt>
      <trkpt lat="44.47133" lon="1.32249">
        <ele>157.9</ele>
        <time>2019-03-28T14:16:23Z</time>
      </trkpt>
      <trkpt lat="44.47135" lon="1.32237">
        <ele>157.7</ele>
        <time>2019-03-28T14:16:31Z</time>
      </trkpt>
      <trkpt lat="44.47135" lon="1.32227">
        <ele>158</ele>
        <time>2019-03-28T14:16:37Z</time>
      </trkpt>
      <trkpt lat="44.47136" lon="1.32215">
        <ele>157.9</ele>
        <time>2019-03-28T14:16:45Z</time>
      </trkpt>
      <trkpt lat="44.47138" lon="1.32203">
        <ele>157.3</ele>
        <time>2019-03-28T14:16:52Z</time>
      </trkpt>
      <trkpt lat="44.47141" lon="1.32194">
        <ele>156.5</ele>
        <time>2019-03-28T14:16:57Z</time>
      </trkpt>
      <trkpt lat="44.47144" lon="1.32185">
        <ele>155.7</ele>
        <time>2019-03-28T14:17:03Z</time>
      </trkpt>
      <trkpt lat="44.47146" lon="1.32175">
        <ele>155.2</ele>
        <time>2019-03-28T14:17:09Z</time>
      </trkpt>
      <trkpt lat="44.47148" lon="1.32163">
        <ele>154.7</ele>
        <time>2019-03-28T14:17:15Z</time>
      </trkpt>
      <trkpt lat="44.47148" lon="1.32153">
        <ele>154.5</ele>
        <time>2019-03-28T14:17:21Z</time>
      </trkpt>
      <trkpt lat="44.4715" lon="1.32141">
        <ele>153.8</ele>
        <time>2019-03-28T14:17:30Z</time>
      </trkpt>
      <trkpt lat="44.47152" lon="1.32132">
        <ele>153</ele>
        <time>2019-03-28T14:17:35Z</time>
      </trkpt>
      <trkpt lat="44.47153" lon="1.32123">
        <ele>152.4</ele>
        <time>2019-03-28T14:17:40Z</time>
      </trkpt>
      <trkpt lat="44.47154" lon="1.32112">
        <ele>151.7</ele>
        <time>2019-03-28T14:17:46Z</time>
      </trkpt>
      <trkpt lat="44.47156" lon="1.32101">
        <ele>150.7</ele>
        <time>2019-03-28T14:18:00Z</time>
      </trkpt>
      <trkpt lat="44.47156" lon="1.32088">
        <ele>150.2</ele>
        <time>2019-03-28T14:18:08Z</time>
      </trkpt>
      <trkpt lat="44.47155" lon="1.32077">
        <ele>150</ele>
        <time>2019-03-28T14:18:15Z</time>
      </trkpt>
      <trkpt lat="44.47154" lon="1.32065">
        <ele>149.7</ele>
        <time>2019-03-28T14:18:22Z</time>
      </trkpt>
      <trkpt lat="44.47154" lon="1.32053">
        <ele>149.1</ele>
        <time>2019-03-28T14:18:29Z</time>
      </trkpt>
      <trkpt lat="44.47153" lon="1.32041">
        <ele>148.7</ele>
        <time>2019-03-28T14:18:36Z</time>
      </trkpt>
      <trkpt lat="44.47152" lon="1.32029">
        <ele>148.2</ele>
        <time>2019-03-28T14:18:42Z</time>
      </trkpt>
      <trkpt lat="44.4715" lon="1.32017">
        <ele>148</ele>
        <time>2019-03-28T14:18:49Z</time>
      </trkpt>
      <trkpt lat="44.47146" lon="1.32005">
        <ele>148</ele>
        <time>2019-03-28T14:18:57Z</time>
      </trkpt>
      <trkpt lat="44.47142" lon="1.31995">
        <ele>148.1</ele>
        <time>2019-03-28T14:19:05Z</time>
      </trkpt>
      <trkpt lat="44.47136" lon="1.31987">
        <ele>148.9</ele>
        <time>2019-03-28T14:19:12Z</time>
      </trkpt>
      <trkpt lat="44.47131" lon="1.3198">
        <ele>149.5</ele>
        <time>2019-03-28T14:19:18Z</time>
      </trkpt>
      <trkpt lat="44.47126" lon="1.31969">
        <ele>149.4</ele>
        <time>2019-03-28T14:19:26Z</time>
      </trkpt>
      <trkpt lat="44.47122" lon="1.3196">
        <ele>149</ele>
        <time>2019-03-28T14:19:33Z</time>
      </trkpt>
      <trkpt lat="44.4712" lon="1.3195">
        <ele>147.8</ele>
        <time>2019-03-28T14:19:38Z</time>
      </trkpt>
      <trkpt lat="44.47122" lon="1.31938">
        <ele>146.8</ele>
        <time>2019-03-28T14:19:44Z</time>
      </trkpt>
      <trkpt lat="44.47122" lon="1.31929">
        <ele>146.7</ele>
        <time>2019-03-28T14:19:49Z</time>
      </trkpt>
      <trkpt lat="44.47119" lon="1.31917">
        <ele>146.7</ele>
        <time>2019-03-28T14:19:56Z</time>
      </trkpt>
      <trkpt lat="44.47116" lon="1.31906">
        <ele>146.9</ele>
        <time>2019-03-28T14:20:03Z</time>
      </trkpt>
      <trkpt lat="44.47112" lon="1.31897">
        <ele>147</ele>
        <time>2019-03-28T14:20:09Z</time>
      </trkpt>
      <trkpt lat="44.47109" lon="1.31887">
        <ele>147.1</ele>
        <time>2019-03-28T14:20:16Z</time>
      </trkpt>
      <trkpt lat="44.47105" lon="1.31876">
        <ele>147.7</ele>
        <time>2019-03-28T14:20:24Z</time>
      </trkpt>
      <trkpt lat="44.47102" lon="1.31865">
        <ele>148.2</ele>
        <time>2019-03-28T14:20:31Z</time>
      </trkpt>
      <trkpt lat="44.47099" lon="1.31855">
        <ele>148.7</ele>
        <time>2019-03-28T14:20:39Z</time>
      </trkpt>
      <trkpt lat="44.47097" lon="1.31844">
        <ele>149.1</ele>
        <time>2019-03-28T14:20:46Z</time>
      </trkpt>
      <trkpt lat="44.47094" lon="1.31833">
        <ele>149.6</ele>
        <time>2019-03-28T14:20:54Z</time>
      </trkpt>
      <trkpt lat="44.4709" lon="1.31822">
        <ele>150.6</ele>
        <time>2019-03-28T14:21:03Z</time>
      </trkpt>
      <trkpt lat="44.47087" lon="1.31813">
        <ele>151.3</ele>
        <time>2019-03-28T14:21:10Z</time>
      </trkpt>
      <trkpt lat="44.47083" lon="1.31803">
        <ele>152.1</ele>
        <time>2019-03-28T14:21:18Z</time>
      </trkpt>
      <trkpt lat="44.47079" lon="1.31793">
        <ele>152.7</ele>
        <time>2019-03-28T14:21:26Z</time>
      </trkpt>
      <trkpt lat="44.47075" lon="1.31782">
        <ele>153.4</ele>
        <time>2019-03-28T14:21:34Z</time>
      </trkpt>
      <trkpt lat="44.47072" lon="1.31771">
        <ele>154.4</ele>
        <time>2019-03-28T14:21:43Z</time>
      </trkpt>
      <trkpt lat="44.47068" lon="1.3176">
        <ele>155.7</ele>
        <time>2019-03-28T14:21:52Z</time>
      </trkpt>
      <trkpt lat="44.47067" lon="1.31748">
        <ele>156.9</ele>
        <time>2019-03-28T14:22:02Z</time>
      </trkpt>
      <trkpt lat="44.47073" lon="1.31743">
        <ele>157.5</ele>
        <time>2019-03-28T14:22:09Z</time>
      </trkpt>
      <trkpt lat="44.47081" lon="1.31741">
        <ele>157.7</ele>
        <time>2019-03-28T14:22:15Z</time>
      </trkpt>
      <trkpt lat="44.47089" lon="1.31738">
        <ele>157.9</ele>
        <time>2019-03-28T14:22:23Z</time>
      </trkpt>
      <trkpt lat="44.47097" lon="1.31733">
        <ele>158.3</ele>
        <time>2019-03-28T14:22:32Z</time>
      </trkpt>
      <trkpt lat="44.47104" lon="1.31728">
        <ele>158.6</ele>
        <time>2019-03-28T14:22:39Z</time>
      </trkpt>
      <trkpt lat="44.4711" lon="1.31723">
        <ele>159</ele>
        <time>2019-03-28T14:22:46Z</time>
      </trkpt>
      <trkpt lat="44.47117" lon="1.31719">
        <ele>158.7</ele>
        <time>2019-03-28T14:22:53Z</time>
      </trkpt>
      <trkpt lat="44.47125" lon="1.31715">
        <ele>158.2</ele>
        <time>2019-03-28T14:23:01Z</time>
      </trkpt>
      <trkpt lat="44.47132" lon="1.3171">
        <ele>157.9</ele>
        <time>2019-03-28T14:23:11Z</time>
      </trkpt>
      <trkpt lat="44.47139" lon="1.31703">
        <ele>157.8</ele>
        <time>2019-03-28T14:23:19Z</time>
      </trkpt>
      <trkpt lat="44.47146" lon="1.31695">
        <ele>157.9</ele>
        <time>2019-03-28T14:23:26Z</time>
      </trkpt>
      <trkpt lat="44.47153" lon="1.31688">
        <ele>157.8</ele>
        <time>2019-03-28T14:23:33Z</time>
      </trkpt>
      <trkpt lat="44.4716" lon="1.31682">
        <ele>157.4</ele>
        <time>2019-03-28T14:23:40Z</time>
      </trkpt>
      <trkpt lat="44.47166" lon="1.31676">
        <ele>157.1</ele>
        <time>2019-03-28T14:23:46Z</time>
      </trkpt>
      <trkpt lat="44.47173" lon="1.31671">
        <ele>156.5</ele>
        <time>2019-03-28T14:23:53Z</time>
      </trkpt>
      <trkpt lat="44.47181" lon="1.31667">
        <ele>155.4</ele>
        <time>2019-03-28T14:24:00Z</time>
      </trkpt>
      <trkpt lat="44.47189" lon="1.31664">
        <ele>154.3</ele>
        <time>2019-03-28T14:24:08Z</time>
      </trkpt>
      <trkpt lat="44.47197" lon="1.31666">
        <ele>152.8</ele>
        <time>2019-03-28T14:27:54Z</time>
      </trkpt>
      <trkpt lat="44.47203" lon="1.3166">
        <ele>152.7</ele>
        <time>2019-03-28T14:28:01Z</time>
      </trkpt>
      <trkpt lat="44.4721" lon="1.31654">
        <ele>152.4</ele>
        <time>2019-03-28T14:28:09Z</time>
      </trkpt>
      <trkpt lat="44.47219" lon="1.31656">
        <ele>151.2</ele>
        <time>2019-03-28T14:28:16Z</time>
      </trkpt>
      <trkpt lat="44.47227" lon="1.31651">
        <ele>150.9</ele>
        <time>2019-03-28T14:28:23Z</time>
      </trkpt>
      <trkpt lat="44.47235" lon="1.31646">
        <ele>150.7</ele>
        <time>2019-03-28T14:28:30Z</time>
      </trkpt>
      <trkpt lat="44.47242" lon="1.31644">
        <ele>150.3</ele>
        <time>2019-03-28T14:28:37Z</time>
      </trkpt>
      <trkpt lat="44.4725" lon="1.31647">
        <ele>149.7</ele>
        <time>2019-03-28T14:28:45Z</time>
      </trkpt>
      <trkpt lat="44.47257" lon="1.31653">
        <ele>149.2</ele>
        <time>2019-03-28T14:28:53Z</time>
      </trkpt>
      <trkpt lat="44.47265" lon="1.31659">
        <ele>148.7</ele>
        <time>2019-03-28T14:29:00Z</time>
      </trkpt>
      <trkpt lat="44.47272" lon="1.31663">
        <ele>148.3</ele>
        <time>2019-03-28T14:29:06Z</time>
      </trkpt>
      <trkpt lat="44.47278" lon="1.31667">
        <ele>148</ele>
        <time>2019-03-28T14:29:12Z</time>
      </trkpt>
      <trkpt lat="44.47287" lon="1.31668">
        <ele>147.6</ele>
        <time>2019-03-28T14:29:19Z</time>
      </trkpt>
      <trkpt lat="44.47293" lon="1.31664">
        <ele>147.5</ele>
        <time>2019-03-28T14:29:25Z</time>
      </trkpt>
      <trkpt lat="44.473" lon="1.31657">
        <ele>147.5</ele>
        <time>2019-03-28T14:29:32Z</time>
      </trkpt>
      <trkpt lat="44.47307" lon="1.3165">
        <ele>147.5</ele>
        <time>2019-03-28T14:29:39Z</time>
      </trkpt>
      <trkpt lat="44.47313" lon="1.31643">
        <ele>147.6</ele>
        <time>2019-03-28T14:29:45Z</time>
      </trkpt>
      <trkpt lat="44.47319" lon="1.31637">
        <ele>147.5</ele>
        <time>2019-03-28T14:29:51Z</time>
      </trkpt>
      <trkpt lat="44.47327" lon="1.31632">
        <ele>147.2</ele>
        <time>2019-03-28T14:29:58Z</time>
      </trkpt>
      <trkpt lat="44.47335" lon="1.31632">
        <ele>146.9</ele>
        <time>2019-03-28T14:30:06Z</time>
      </trkpt>
      <trkpt lat="44.47342" lon="1.31639">
        <ele>146.7</ele>
        <time>2019-03-28T14:30:15Z</time>
      </trkpt>
      <trkpt lat="44.47348" lon="1.31647">
        <ele>146.3</ele>
        <time>2019-03-28T14:30:22Z</time>
      </trkpt>
      <trkpt lat="44.47353" lon="1.31656">
        <ele>146.1</ele>
        <time>2019-03-28T14:30:30Z</time>
      </trkpt>
      <trkpt lat="44.47358" lon="1.31664">
        <ele>146</ele>
        <time>2019-03-28T14:30:36Z</time>
      </trkpt>
      <trkpt lat="44.47364" lon="1.31672">
        <ele>145.9</ele>
        <time>2019-03-28T14:30:43Z</time>
      </trkpt>
      <trkpt lat="44.47369" lon="1.3168">
        <ele>145.7</ele>
        <time>2019-03-28T14:30:50Z</time>
      </trkpt>
      <trkpt lat="44.47375" lon="1.31689">
        <ele>145.5</ele>
        <time>2019-03-28T14:30:57Z</time>
      </trkpt>
      <trkpt lat="44.4738" lon="1.31699">
        <ele>145.4</ele>
        <time>2019-03-28T14:31:05Z</time>
      </trkpt>
      <trkpt lat="44.47385" lon="1.31708">
        <ele>145.6</ele>
        <time>2019-03-28T14:31:12Z</time>
      </trkpt>
      <trkpt lat="44.4739" lon="1.31718">
        <ele>145.9</ele>
        <time>2019-03-28T14:31:20Z</time>
      </trkpt>
      <trkpt lat="44.47395" lon="1.31727">
        <ele>146.1</ele>
        <time>2019-03-28T14:31:27Z</time>
      </trkpt>
      <trkpt lat="44.47401" lon="1.31735">
        <ele>146.3</ele>
        <time>2019-03-28T14:31:33Z</time>
      </trkpt>
      <trkpt lat="44.47408" lon="1.31741">
        <ele>146.2</ele>
        <time>2019-03-28T14:31:39Z</time>
      </trkpt>
      <trkpt lat="44.47415" lon="1.31737">
        <ele>146</ele>
        <time>2019-03-28T14:31:47Z</time>
      </trkpt>
      <trkpt lat="44.47421" lon="1.3173">
        <ele>145.9</ele>
        <time>2019-03-28T14:31:54Z</time>
      </trkpt>
      <trkpt lat="44.47426" lon="1.31724">
        <ele>146</ele>
        <time>2019-03-28T14:32:00Z</time>
      </trkpt>
      <trkpt lat="44.47431" lon="1.31717">
        <ele>146</ele>
        <time>2019-03-28T14:32:06Z</time>
      </trkpt>
      <trkpt lat="44.47437" lon="1.3171">
        <ele>146</ele>
        <time>2019-03-28T14:32:12Z</time>
      </trkpt>
      <trkpt lat="44.47444" lon="1.31704">
        <ele>146</ele>
        <time>2019-03-28T14:32:56Z</time>
      </trkpt>
      <trkpt lat="44.47452" lon="1.31701">
        <ele>145.9</ele>
        <time>2019-03-28T14:33:43Z</time>
      </trkpt>
      <trkpt lat="44.47461" lon="1.31701">
        <ele>145.7</ele>
        <time>2019-03-28T14:34:03Z</time>
      </trkpt>
      <trkpt lat="44.47462" lon="1.31689">
        <ele>146</ele>
        <time>2019-03-28T14:34:23Z</time>
      </trkpt>
      <trkpt lat="44.47469" lon="1.31683">
        <ele>146</ele>
        <time>2019-03-28T14:34:29Z</time>
      </trkpt>
      <trkpt lat="44.47475" lon="1.31676">
        <ele>146</ele>
        <time>2019-03-28T14:34:35Z</time>
      </trkpt>
      <trkpt lat="44.4748" lon="1.3167">
        <ele>146</ele>
        <time>2019-03-28T14:34:41Z</time>
      </trkpt>
      <trkpt lat="44.47487" lon="1.31666">
        <ele>146</ele>
        <time>2019-03-28T14:34:46Z</time>
      </trkpt>
      <trkpt lat="44.47494" lon="1.31661">
        <ele>146</ele>
        <time>2019-03-28T14:34:52Z</time>
      </trkpt>
      <trkpt lat="44.475" lon="1.31657">
        <ele>146</ele>
        <time>2019-03-28T14:34:56Z</time>
      </trkpt>
      <trkpt lat="44.47507" lon="1.31653">
        <ele>145.7</ele>
        <time>2019-03-28T14:35:01Z</time>
      </trkpt>
      <trkpt lat="44.47513" lon="1.3165">
        <ele>145.5</ele>
        <time>2019-03-28T14:35:05Z</time>
      </trkpt>
      <trkpt lat="44.47521" lon="1.31647">
        <ele>145.2</ele>
        <time>2019-03-28T14:35:11Z</time>
      </trkpt>
      <trkpt lat="44.4753" lon="1.31644">
        <ele>144.9</ele>
        <time>2019-03-28T14:35:17Z</time>
      </trkpt>
      <trkpt lat="44.47538" lon="1.3164">
        <ele>144.6</ele>
        <time>2019-03-28T14:35:23Z</time>
      </trkpt>
      <trkpt lat="44.47545" lon="1.31636">
        <ele>144.4</ele>
        <time>2019-03-28T14:35:28Z</time>
      </trkpt>
      <trkpt lat="44.47553" lon="1.31631">
        <ele>144.1</ele>
        <time>2019-03-28T14:35:33Z</time>
      </trkpt>
      <trkpt lat="44.4756" lon="1.31626">
        <ele>143.8</ele>
        <time>2019-03-28T14:35:38Z</time>
      </trkpt>
      <trkpt lat="44.47568" lon="1.31621">
        <ele>143.6</ele>
        <time>2019-03-28T14:35:44Z</time>
      </trkpt>
      <trkpt lat="44.47575" lon="1.31616">
        <ele>143.3</ele>
        <time>2019-03-28T14:35:49Z</time>
      </trkpt>
      <trkpt lat="44.4758" lon="1.31612">
        <ele>143.1</ele>
        <time>2019-03-28T14:35:53Z</time>
      </trkpt>
      <trkpt lat="44.47588" lon="1.31608">
        <ele>142.8</ele>
        <time>2019-03-28T14:35:59Z</time>
      </trkpt>
      <trkpt lat="44.47596" lon="1.31603">
        <ele>142.5</ele>
        <time>2019-03-28T14:36:05Z</time>
      </trkpt>
      <trkpt lat="44.47604" lon="1.31597">
        <ele>142.3</ele>
        <time>2019-03-28T14:36:11Z</time>
      </trkpt>
      <trkpt lat="44.4761" lon="1.31593">
        <ele>142</ele>
        <time>2019-03-28T14:36:16Z</time>
      </trkpt>
      <trkpt lat="44.47616" lon="1.31587">
        <ele>141.8</ele>
        <time>2019-03-28T14:36:21Z</time>
      </trkpt>
      <trkpt lat="44.47619" lon="1.31576">
        <ele>141.3</ele>
        <time>2019-03-28T14:36:27Z</time>
      </trkpt>
      <trkpt lat="44.47621" lon="1.31564">
        <ele>140.7</ele>
        <time>2019-03-28T14:36:33Z</time>
      </trkpt>
      <trkpt lat="44.47622" lon="1.31554">
        <ele>140.3</ele>
        <time>2019-03-28T14:36:38Z</time>
      </trkpt>
      <trkpt lat="44.47623" lon="1.31543">
        <ele>139.8</ele>
        <time>2019-03-28T14:36:44Z</time>
      </trkpt>
      <trkpt lat="44.47623" lon="1.31531">
        <ele>139.2</ele>
        <time>2019-03-28T14:36:50Z</time>
      </trkpt>
      <trkpt lat="44.47622" lon="1.31519">
        <ele>138.9</ele>
        <time>2019-03-28T14:36:56Z</time>
      </trkpt>
      <trkpt lat="44.47621" lon="1.31507">
        <ele>138.7</ele>
        <time>2019-03-28T14:37:02Z</time>
      </trkpt>
      <trkpt lat="44.47621" lon="1.31495">
        <ele>138.7</ele>
        <time>2019-03-28T14:37:08Z</time>
      </trkpt>
      <trkpt lat="44.47621" lon="1.31484">
        <ele>138.8</ele>
        <time>2019-03-28T14:37:14Z</time>
      </trkpt>
      <trkpt lat="44.47621" lon="1.31473">
        <ele>139</ele>
        <time>2019-03-28T14:37:20Z</time>
      </trkpt>
      <trkpt lat="44.47623" lon="1.31463">
        <ele>139</ele>
        <time>2019-03-28T14:37:25Z</time>
      </trkpt>
      <trkpt lat="44.47625" lon="1.31452">
        <ele>139</ele>
        <time>2019-03-28T14:37:30Z</time>
      </trkpt>
      <trkpt lat="44.47627" lon="1.31443">
        <ele>139</ele>
        <time>2019-03-28T14:37:35Z</time>
      </trkpt>
      <trkpt lat="44.47629" lon="1.31431">
        <ele>138.7</ele>
        <time>2019-03-28T14:37:41Z</time>
      </trkpt>
      <trkpt lat="44.47632" lon="1.3142">
        <ele>138.3</ele>
        <time>2019-03-28T14:37:47Z</time>
      </trkpt>
      <trkpt lat="44.47634" lon="1.31408">
        <ele>138.2</ele>
        <time>2019-03-28T14:37:53Z</time>
      </trkpt>
      <trkpt lat="44.47635" lon="1.31396">
        <ele>138.1</ele>
        <time>2019-03-28T14:37:59Z</time>
      </trkpt>
      <trkpt lat="44.47637" lon="1.31385">
        <ele>138.1</ele>
        <time>2019-03-28T14:38:05Z</time>
      </trkpt>
      <trkpt lat="44.47639" lon="1.31373">
        <ele>138</ele>
        <time>2019-03-28T14:38:11Z</time>
      </trkpt>
      <trkpt lat="44.47644" lon="1.31366">
        <ele>137.8</ele>
        <time>2019-03-28T14:38:15Z</time>
      </trkpt>
      <trkpt lat="44.47649" lon="1.31357">
        <ele>137.7</ele>
        <time>2019-03-28T14:38:20Z</time>
      </trkpt>
      <trkpt lat="44.47656" lon="1.31351">
        <ele>137.6</ele>
        <time>2019-03-28T14:38:26Z</time>
      </trkpt>
      <trkpt lat="44.47663" lon="1.31347">
        <ele>137.6</ele>
        <time>2019-03-28T14:38:32Z</time>
      </trkpt>
      <trkpt lat="44.47666" lon="1.31335">
        <ele>137.9</ele>
        <time>2019-03-28T14:38:41Z</time>
      </trkpt>
      <trkpt lat="44.4767" lon="1.31324">
        <ele>138</ele>
        <time>2019-03-28T14:38:49Z</time>
      </trkpt>
      <trkpt lat="44.47673" lon="1.31313">
        <ele>138</ele>
        <time>2019-03-28T14:38:56Z</time>
      </trkpt>
      <trkpt lat="44.4768" lon="1.31306">
        <ele>138</ele>
        <time>2019-03-28T14:39:02Z</time>
      </trkpt>
      <trkpt lat="44.47687" lon="1.31301">
        <ele>138.1</ele>
        <time>2019-03-28T14:39:08Z</time>
      </trkpt>
      <trkpt lat="44.47696" lon="1.313">
        <ele>138.2</ele>
        <time>2019-03-28T14:39:15Z</time>
      </trkpt>
      <trkpt lat="44.47704" lon="1.31303">
        <ele>138.1</ele>
        <time>2019-03-28T14:39:22Z</time>
      </trkpt>
      <trkpt lat="44.4771" lon="1.31304">
        <ele>138.1</ele>
        <time>2019-03-28T14:39:27Z</time>
      </trkpt>
      <trkpt lat="44.47719" lon="1.31304">
        <ele>138.1</ele>
        <time>2019-03-28T14:39:33Z</time>
      </trkpt>
      <trkpt lat="44.47726" lon="1.31304">
        <ele>137.9</ele>
        <time>2019-03-28T14:39:38Z</time>
      </trkpt>
      <trkpt lat="44.47733" lon="1.31301">
        <ele>137.8</ele>
        <time>2019-03-28T14:39:44Z</time>
      </trkpt>
      <trkpt lat="44.4774" lon="1.31297">
        <ele>137.7</ele>
        <time>2019-03-28T14:39:50Z</time>
      </trkpt>
      <trkpt lat="44.47745" lon="1.31294">
        <ele>137.6</ele>
        <time>2019-03-28T14:39:54Z</time>
      </trkpt>
      <trkpt lat="44.47752" lon="1.31289">
        <ele>137.6</ele>
        <time>2019-03-28T14:39:59Z</time>
      </trkpt>
      <trkpt lat="44.47758" lon="1.31283">
        <ele>137.6</ele>
        <time>2019-03-28T14:40:04Z</time>
      </trkpt>
      <trkpt lat="44.47762" lon="1.31273">
        <ele>137.7</ele>
        <time>2019-03-28T14:40:10Z</time>
      </trkpt>
      <trkpt lat="44.47761" lon="1.31263">
        <ele>137.9</ele>
        <time>2019-03-28T14:40:16Z</time>
      </trkpt>
      <trkpt lat="44.47759" lon="1.31252">
        <ele>138.3</ele>
        <time>2019-03-28T14:40:23Z</time>
      </trkpt>
      <trkpt lat="44.47759" lon="1.31243">
        <ele>138.4</ele>
        <time>2019-03-28T14:40:28Z</time>
      </trkpt>
      <trkpt lat="44.4776" lon="1.31231">
        <ele>138.5</ele>
        <time>2019-03-28T14:40:35Z</time>
      </trkpt>
      <trkpt lat="44.47757" lon="1.31219">
        <ele>138.8</ele>
        <time>2019-03-28T14:42:41Z</time>
      </trkpt>
      <trkpt lat="44.47758" lon="1.31208">
        <ele>139.1</ele>
        <time>2019-03-28T14:48:30Z</time>
      </trkpt>
      <trkpt lat="44.4776" lon="1.31197">
        <ele>139.2</ele>
        <time>2019-03-28T14:48:38Z</time>
      </trkpt>
      <trkpt lat="44.47762" lon="1.31186">
        <ele>139</ele>
        <time>2019-03-28T14:48:46Z</time>
      </trkpt>
      <trkpt lat="44.47763" lon="1.31176">
        <ele>138.7</ele>
        <time>2019-03-28T14:48:53Z</time>
      </trkpt>
      <trkpt lat="44.47765" lon="1.31164">
        <ele>138.5</ele>
        <time>2019-03-28T14:49:01Z</time>
      </trkpt>
      <trkpt lat="44.47768" lon="1.31155">
        <ele>138.4</ele>
        <time>2019-03-28T14:49:07Z</time>
      </trkpt>
      <trkpt lat="44.47771" lon="1.31145">
        <ele>138.2</ele>
        <time>2019-03-28T14:49:14Z</time>
      </trkpt>
      <trkpt lat="44.47773" lon="1.31134">
        <ele>138.3</ele>
        <time>2019-03-28T14:49:22Z</time>
      </trkpt>
      <trkpt lat="44.47775" lon="1.31123">
        <ele>138.6</ele>
        <time>2019-03-28T14:49:29Z</time>
      </trkpt>
      <trkpt lat="44.47779" lon="1.31112">
        <ele>138.9</ele>
        <time>2019-03-28T14:49:35Z</time>
      </trkpt>
      <trkpt lat="44.47782" lon="1.31103">
        <ele>138.5</ele>
        <time>2019-03-28T14:49:41Z</time>
      </trkpt>
      <trkpt lat="44.47787" lon="1.31092">
        <ele>138.1</ele>
        <time>2019-03-28T14:49:49Z</time>
      </trkpt>
      <trkpt lat="44.47791" lon="1.31083">
        <ele>138</ele>
        <time>2019-03-28T14:49:56Z</time>
      </trkpt>
      <trkpt lat="44.47796" lon="1.31075">
        <ele>138</ele>
        <time>2019-03-28T14:50:03Z</time>
      </trkpt>
      <trkpt lat="44.47802" lon="1.31066">
        <ele>138</ele>
        <time>2019-03-28T14:50:10Z</time>
      </trkpt>
      <trkpt lat="44.47808" lon="1.31057">
        <ele>138</ele>
        <time>2019-03-28T14:50:17Z</time>
      </trkpt>
      <trkpt lat="44.47814" lon="1.3105">
        <ele>138</ele>
        <time>2019-03-28T14:50:24Z</time>
      </trkpt>
      <trkpt lat="44.4782" lon="1.31043">
        <ele>138</ele>
        <time>2019-03-28T14:50:31Z</time>
      </trkpt>
      <trkpt lat="44.47827" lon="1.31037">
        <ele>138</ele>
        <time>2019-03-28T14:50:37Z</time>
      </trkpt>
      <trkpt lat="44.47834" lon="1.3103">
        <ele>138</ele>
        <time>2019-03-28T14:50:44Z</time>
      </trkpt>
      <trkpt lat="44.47841" lon="1.31025">
        <ele>137.8</ele>
        <time>2019-03-28T14:50:51Z</time>
      </trkpt>
      <trkpt lat="44.47848" lon="1.31021">
        <ele>137.6</ele>
        <time>2019-03-28T14:50:59Z</time>
      </trkpt>
      <trkpt lat="44.47856" lon="1.31013">
        <ele>137.6</ele>
        <time>2019-03-28T14:51:06Z</time>
      </trkpt>
      <trkpt lat="44.4786" lon="1.31004">
        <ele>137.9</ele>
        <time>2019-03-28T14:51:35Z</time>
      </trkpt>
      <trkpt lat="44.47868" lon="1.30998">
        <ele>137.8</ele>
        <time>2019-03-28T14:51:44Z</time>
      </trkpt>
      <trkpt lat="44.47874" lon="1.30991">
        <ele>137.5</ele>
        <time>2019-03-28T14:51:52Z</time>
      </trkpt>
      <trkpt lat="44.47881" lon="1.30987">
        <ele>137.3</ele>
        <time>2019-03-28T14:51:57Z</time>
      </trkpt>
      <trkpt lat="44.47888" lon="1.30982">
        <ele>137</ele>
        <time>2019-03-28T14:52:03Z</time>
      </trkpt>
      <trkpt lat="44.47895" lon="1.30978">
        <ele>137</ele>
        <time>2019-03-28T14:52:09Z</time>
      </trkpt>
      <trkpt lat="44.47904" lon="1.30979">
        <ele>136.9</ele>
        <time>2019-03-28T14:52:16Z</time>
      </trkpt>
      <trkpt lat="44.47913" lon="1.30982">
        <ele>136.7</ele>
        <time>2019-03-28T14:52:22Z</time>
      </trkpt>
      <trkpt lat="44.47918" lon="1.30991">
        <ele>136.3</ele>
        <time>2019-03-28T14:52:33Z</time>
      </trkpt>
      <trkpt lat="44.4792" lon="1.31002">
        <ele>135.9</ele>
        <time>2019-03-28T14:52:42Z</time>
      </trkpt>
      <trkpt lat="44.47925" lon="1.31012">
        <ele>135.7</ele>
        <time>2019-03-28T14:52:50Z</time>
      </trkpt>
      <trkpt lat="44.47931" lon="1.31019">
        <ele>135.5</ele>
        <time>2019-03-28T14:52:56Z</time>
      </trkpt>
      <trkpt lat="44.47938" lon="1.31026">
        <ele>135.2</ele>
        <time>2019-03-28T14:53:03Z</time>
      </trkpt>
      <trkpt lat="44.47945" lon="1.31033">
        <ele>135</ele>
        <time>2019-03-28T14:53:10Z</time>
      </trkpt>
      <trkpt lat="44.4795" lon="1.31042">
        <ele>134.8</ele>
        <time>2019-03-28T14:53:18Z</time>
      </trkpt>
      <trkpt lat="44.47956" lon="1.31049">
        <ele>134.6</ele>
        <time>2019-03-28T14:53:24Z</time>
      </trkpt>
      <trkpt lat="44.47962" lon="1.31058">
        <ele>134.3</ele>
        <time>2019-03-28T14:53:31Z</time>
      </trkpt>
      <trkpt lat="44.47968" lon="1.31063">
        <ele>133.9</ele>
        <time>2019-03-28T14:53:38Z</time>
      </trkpt>
      <trkpt lat="44.47972" lon="1.31073">
        <ele>133.4</ele>
        <time>2019-03-28T14:53:59Z</time>
      </trkpt>
      <trkpt lat="44.47974" lon="1.31082">
        <ele>133</ele>
        <time>2019-03-28T14:54:06Z</time>
      </trkpt>
      <trkpt lat="44.47979" lon="1.31091">
        <ele>132.7</ele>
        <time>2019-03-28T14:54:14Z</time>
      </trkpt>
      <trkpt lat="44.47982" lon="1.31099">
        <ele>132.4</ele>
        <time>2019-03-28T14:54:19Z</time>
      </trkpt>
      <trkpt lat="44.47985" lon="1.31108">
        <ele>132.1</ele>
        <time>2019-03-28T14:54:24Z</time>
      </trkpt>
      <trkpt lat="44.47988" lon="1.31119">
        <ele>131.6</ele>
        <time>2019-03-28T14:54:30Z</time>
      </trkpt>
      <trkpt lat="44.47988" lon="1.3113">
        <ele>131.2</ele>
        <time>2019-03-28T14:54:35Z</time>
      </trkpt>
      <trkpt lat="44.47989" lon="1.31139">
        <ele>130.8</ele>
        <time>2019-03-28T14:54:40Z</time>
      </trkpt>
      <trkpt lat="44.47994" lon="1.3115">
        <ele>130.3</ele>
        <time>2019-03-28T14:54:47Z</time>
      </trkpt>
      <trkpt lat="44.48001" lon="1.31156">
        <ele>130</ele>
        <time>2019-03-28T14:54:53Z</time>
      </trkpt>
      <trkpt lat="44.48008" lon="1.31158">
        <ele>130.1</ele>
        <time>2019-03-28T14:54:58Z</time>
      </trkpt>
      <trkpt lat="44.48015" lon="1.31164">
        <ele>130.4</ele>
        <time>2019-03-28T14:55:05Z</time>
      </trkpt>
      <trkpt lat="44.48018" lon="1.31175">
        <ele>131.4</ele>
        <time>2019-03-28T14:55:15Z</time>
      </trkpt>
      <trkpt lat="44.4802" lon="1.31185">
        <ele>132.5</ele>
        <time>2019-03-28T14:55:22Z</time>
      </trkpt>
      <trkpt lat="44.48027" lon="1.31192">
        <ele>133.7</ele>
        <time>2019-03-28T14:55:29Z</time>
      </trkpt>
      <trkpt lat="44.48035" lon="1.31195">
        <ele>134.3</ele>
        <time>2019-03-28T14:55:44Z</time>
      </trkpt>
      <trkpt lat="44.48038" lon="1.31207">
        <ele>135.6</ele>
        <time>2019-03-28T14:55:58Z</time>
      </trkpt>
      <trkpt lat="44.48042" lon="1.31217">
        <ele>136.5</ele>
        <time>2019-03-28T14:56:15Z</time>
      </trkpt>
      <trkpt lat="44.48047" lon="1.31228">
        <ele>137</ele>
        <time>2019-03-28T14:56:24Z</time>
      </trkpt>
      <trkpt lat="44.48052" lon="1.31237">
        <ele>137</ele>
        <time>2019-03-28T14:56:30Z</time>
      </trkpt>
      <trkpt lat="44.48058" lon="1.31246">
        <ele>137</ele>
        <time>2019-03-28T14:56:37Z</time>
      </trkpt>
      <trkpt lat="44.48062" lon="1.31253">
        <ele>137</ele>
        <time>2019-03-28T14:56:42Z</time>
      </trkpt>
      <trkpt lat="44.48066" lon="1.31263">
        <ele>137</ele>
        <time>2019-03-28T14:56:48Z</time>
      </trkpt>
      <trkpt lat="44.48072" lon="1.31271">
        <ele>137</ele>
        <time>2019-03-28T14:56:54Z</time>
      </trkpt>
      <trkpt lat="44.48079" lon="1.31279">
        <ele>137</ele>
        <time>2019-03-28T14:57:01Z</time>
      </trkpt>
      <trkpt lat="44.48083" lon="1.31287">
        <ele>137</ele>
        <time>2019-03-28T14:57:07Z</time>
      </trkpt>
      <trkpt lat="44.48087" lon="1.31297">
        <ele>136.7</ele>
        <time>2019-03-28T14:57:14Z</time>
      </trkpt>
      <trkpt lat="44.48092" lon="1.31305">
        <ele>136.4</ele>
        <time>2019-03-28T14:57:20Z</time>
      </trkpt>
      <trkpt lat="44.48097" lon="1.31311">
        <ele>135.9</ele>
        <time>2019-03-28T14:57:25Z</time>
      </trkpt>
      <trkpt lat="44.48101" lon="1.31319">
        <ele>135.6</ele>
        <time>2019-03-28T14:57:31Z</time>
      </trkpt>
      <trkpt lat="44.48107" lon="1.31327">
        <ele>135.2</ele>
        <time>2019-03-28T14:57:37Z</time>
      </trkpt>
      <trkpt lat="44.48112" lon="1.31334">
        <ele>135</ele>
        <time>2019-03-28T14:57:42Z</time>
      </trkpt>
      <trkpt lat="44.48117" lon="1.31339">
        <ele>134.8</ele>
        <time>2019-03-28T14:57:48Z</time>
      </trkpt>
      <trkpt lat="44.48124" lon="1.31345">
        <ele>134.7</ele>
        <time>2019-03-28T14:57:55Z</time>
      </trkpt>
      <trkpt lat="44.4813" lon="1.31353">
        <ele>134.8</ele>
        <time>2019-03-28T14:58:02Z</time>
      </trkpt>
      <trkpt lat="44.48136" lon="1.3136">
        <ele>135</ele>
        <time>2019-03-28T14:58:09Z</time>
      </trkpt>
      <trkpt lat="44.48142" lon="1.31368">
        <ele>135.2</ele>
        <time>2019-03-28T14:58:16Z</time>
      </trkpt>
      <trkpt lat="44.48149" lon="1.31374">
        <ele>135.5</ele>
        <time>2019-03-28T14:58:21Z</time>
      </trkpt>
      <trkpt lat="44.48156" lon="1.31382">
        <ele>135.8</ele>
        <time>2019-03-28T14:58:26Z</time>
      </trkpt>
      <trkpt lat="44.48161" lon="1.31388">
        <ele>136</ele>
        <time>2019-03-28T14:58:31Z</time>
      </trkpt>
      <trkpt lat="44.48169" lon="1.31394">
        <ele>135.8</ele>
        <time>2019-03-28T14:58:39Z</time>
      </trkpt>
      <trkpt lat="44.48177" lon="1.31391">
        <ele>135.9</ele>
        <time>2019-03-28T14:58:46Z</time>
      </trkpt>
      <trkpt lat="44.48184" lon="1.31387">
        <ele>136</ele>
        <time>2019-03-28T14:58:53Z</time>
      </trkpt>
      <trkpt lat="44.48191" lon="1.31381">
        <ele>136</ele>
        <time>2019-03-28T14:59:00Z</time>
      </trkpt>
      <trkpt lat="44.48198" lon="1.31375">
        <ele>136.1</ele>
        <time>2019-03-28T14:59:07Z</time>
      </trkpt>
      <trkpt lat="44.48204" lon="1.3137">
        <ele>136.2</ele>
        <time>2019-03-28T14:59:13Z</time>
      </trkpt>
      <trkpt lat="44.48211" lon="1.31363">
        <ele>136.6</ele>
        <time>2019-03-28T14:59:20Z</time>
      </trkpt>
      <trkpt lat="44.48219" lon="1.31358">
        <ele>136.9</ele>
        <time>2019-03-28T14:59:27Z</time>
      </trkpt>
      <trkpt lat="44.48224" lon="1.31352">
        <ele>137</ele>
        <time>2019-03-28T14:59:32Z</time>
      </trkpt>
      <trkpt lat="44.48231" lon="1.31346">
        <ele>137.2</ele>
        <time>2019-03-28T14:59:38Z</time>
      </trkpt>
      <trkpt lat="44.48239" lon="1.3134">
        <ele>137.5</ele>
        <time>2019-03-28T14:59:45Z</time>
      </trkpt>
      <trkpt lat="44.48246" lon="1.31334">
        <ele>137.8</ele>
        <time>2019-03-28T14:59:52Z</time>
      </trkpt>
      <trkpt lat="44.48253" lon="1.31328">
        <ele>138</ele>
        <time>2019-03-28T14:59:59Z</time>
      </trkpt>
      <trkpt lat="44.4826" lon="1.31324">
        <ele>138</ele>
        <time>2019-03-28T15:00:05Z</time>
      </trkpt>
      <trkpt lat="44.48267" lon="1.31319">
        <ele>138</ele>
        <time>2019-03-28T15:00:11Z</time>
      </trkpt>
      <trkpt lat="44.48273" lon="1.31314">
        <ele>138</ele>
        <time>2019-03-28T15:00:17Z</time>
      </trkpt>
      <trkpt lat="44.4828" lon="1.3131">
        <ele>138</ele>
        <time>2019-03-28T15:00:23Z</time>
      </trkpt>
      <trkpt lat="44.48288" lon="1.31307">
        <ele>138</ele>
        <time>2019-03-28T15:00:29Z</time>
      </trkpt>
      <trkpt lat="44.48296" lon="1.31302">
        <ele>138</ele>
        <time>2019-03-28T15:00:36Z</time>
      </trkpt>
      <trkpt lat="44.48301" lon="1.31293">
        <ele>138</ele>
        <time>2019-03-28T15:00:46Z</time>
      </trkpt>
      <trkpt lat="44.48304" lon="1.31284">
        <ele>138</ele>
        <time>2019-03-28T15:00:51Z</time>
      </trkpt>
      <trkpt lat="44.48304" lon="1.31273">
        <ele>137.7</ele>
        <time>2019-03-28T15:00:57Z</time>
      </trkpt>
      <trkpt lat="44.48304" lon="1.3126">
        <ele>136.7</ele>
        <time>2019-03-28T15:01:07Z</time>
      </trkpt>
      <trkpt lat="44.4831" lon="1.31253">
        <ele>136.4</ele>
        <time>2019-03-28T15:01:13Z</time>
      </trkpt>
      <trkpt lat="44.48317" lon="1.31247">
        <ele>136.3</ele>
        <time>2019-03-28T15:01:21Z</time>
      </trkpt>
      <trkpt lat="44.48324" lon="1.3124">
        <ele>136.3</ele>
        <time>2019-03-28T15:01:28Z</time>
      </trkpt>
      <trkpt lat="44.48332" lon="1.31235">
        <ele>136.4</ele>
        <time>2019-03-28T15:01:37Z</time>
      </trkpt>
      <trkpt lat="44.48339" lon="1.31231">
        <ele>136.5</ele>
        <time>2019-03-28T15:01:44Z</time>
      </trkpt>
      <trkpt lat="44.48348" lon="1.31227">
        <ele>136.7</ele>
        <time>2019-03-28T15:01:51Z</time>
      </trkpt>
      <trkpt lat="44.48356" lon="1.31222">
        <ele>136.8</ele>
        <time>2019-03-28T15:01:58Z</time>
      </trkpt>
      <trkpt lat="44.48363" lon="1.31215">
        <ele>136.8</ele>
        <time>2019-03-28T15:02:05Z</time>
      </trkpt>
      <trkpt lat="44.48366" lon="1.31203">
        <ele>136.5</ele>
        <time>2019-03-28T15:02:13Z</time>
      </trkpt>
      <trkpt lat="44.48362" lon="1.31192">
        <ele>136</ele>
        <time>2019-03-28T15:02:21Z</time>
      </trkpt>
      <trkpt lat="44.48358" lon="1.31181">
        <ele>135.8</ele>
        <time>2019-03-28T15:02:32Z</time>
      </trkpt>
      <trkpt lat="44.48363" lon="1.31171">
        <ele>136</ele>
        <time>2019-03-28T15:02:38Z</time>
      </trkpt>
      <trkpt lat="44.48366" lon="1.31161">
        <ele>136</ele>
        <time>2019-03-28T15:02:45Z</time>
      </trkpt>
      <trkpt lat="44.4837" lon="1.31153">
        <ele>135.8</ele>
        <time>2019-03-28T15:02:51Z</time>
      </trkpt>
      <trkpt lat="44.48374" lon="1.31143">
        <ele>135.6</ele>
        <time>2019-03-28T15:02:57Z</time>
      </trkpt>
      <trkpt lat="44.48378" lon="1.31135">
        <ele>135.3</ele>
        <time>2019-03-28T15:03:03Z</time>
      </trkpt>
      <trkpt lat="44.48383" lon="1.31126">
        <ele>134.7</ele>
        <time>2019-03-28T15:03:09Z</time>
      </trkpt>
      <trkpt lat="44.48387" lon="1.31117">
        <ele>134.3</ele>
        <time>2019-03-28T15:03:15Z</time>
      </trkpt>
      <trkpt lat="44.48393" lon="1.31108">
        <ele>134</ele>
        <time>2019-03-28T15:03:23Z</time>
      </trkpt>
      <trkpt lat="44.48399" lon="1.31099">
        <ele>133.8</ele>
        <time>2019-03-28T15:03:29Z</time>
      </trkpt>
      <trkpt lat="44.48403" lon="1.31089">
        <ele>133.6</ele>
        <time>2019-03-28T15:03:35Z</time>
      </trkpt>
      <trkpt lat="44.48408" lon="1.3108">
        <ele>133.3</ele>
        <time>2019-03-28T15:03:41Z</time>
      </trkpt>
      <trkpt lat="44.48414" lon="1.31071">
        <ele>133.1</ele>
        <time>2019-03-28T15:03:49Z</time>
      </trkpt>
      <trkpt lat="44.48422" lon="1.31072">
        <ele>132.8</ele>
        <time>2019-03-28T15:03:57Z</time>
      </trkpt>
      <trkpt lat="44.48429" lon="1.31079">
        <ele>132.6</ele>
        <time>2019-03-28T15:04:05Z</time>
      </trkpt>
      <trkpt lat="44.48436" lon="1.31084">
        <ele>132.3</ele>
        <time>2019-03-28T15:04:12Z</time>
      </trkpt>
      <trkpt lat="44.48442" lon="1.31089">
        <ele>132.3</ele>
        <time>2019-03-28T15:04:18Z</time>
      </trkpt>
      <trkpt lat="44.4845" lon="1.31083">
        <ele>131.8</ele>
        <time>2019-03-28T15:04:28Z</time>
      </trkpt>
      <trkpt lat="44.48456" lon="1.31074">
        <ele>131.6</ele>
        <time>2019-03-28T15:04:36Z</time>
      </trkpt>
      <trkpt lat="44.48463" lon="1.31071">
        <ele>131.3</ele>
        <time>2019-03-28T15:04:42Z</time>
      </trkpt>
      <trkpt lat="44.48472" lon="1.31071">
        <ele>131</ele>
        <time>2019-03-28T15:04:59Z</time>
      </trkpt>
      <trkpt lat="44.48479" lon="1.31076">
        <ele>130.8</ele>
        <time>2019-03-28T15:05:06Z</time>
      </trkpt>
      <trkpt lat="44.48487" lon="1.31071">
        <ele>130.5</ele>
        <time>2019-03-28T15:05:15Z</time>
      </trkpt>
      <trkpt lat="44.48492" lon="1.31064">
        <ele>130.3</ele>
        <time>2019-03-28T15:05:21Z</time>
      </trkpt>
      <trkpt lat="44.48498" lon="1.31057">
        <ele>130.1</ele>
        <time>2019-03-28T15:05:27Z</time>
      </trkpt>
      <trkpt lat="44.48503" lon="1.3105">
        <ele>129.5</ele>
        <time>2019-03-28T15:05:33Z</time>
      </trkpt>
      <trkpt lat="44.4851" lon="1.31043">
        <ele>128.5</ele>
        <time>2019-03-28T15:05:38Z</time>
      </trkpt>
      <trkpt lat="44.48515" lon="1.31034">
        <ele>127.6</ele>
        <time>2019-03-28T15:05:44Z</time>
      </trkpt>
      <trkpt lat="44.4852" lon="1.31024">
        <ele>126.4</ele>
        <time>2019-03-28T15:05:51Z</time>
      </trkpt>
      <trkpt lat="44.48527" lon="1.3102">
        <ele>125</ele>
        <time>2019-03-28T15:06:01Z</time>
      </trkpt>
      <trkpt lat="44.48534" lon="1.31016">
        <ele>123</ele>
        <time>2019-03-28T15:06:08Z</time>
      </trkpt>
      <trkpt lat="44.48543" lon="1.31018">
        <ele>121.5</ele>
        <time>2019-03-28T15:06:18Z</time>
      </trkpt>
      <trkpt lat="44.48551" lon="1.31024">
        <ele>121</ele>
        <time>2019-03-28T15:06:29Z</time>
      </trkpt>
      <trkpt lat="44.48558" lon="1.3103">
        <ele>120.5</ele>
        <time>2019-03-28T15:06:37Z</time>
      </trkpt>
      <trkpt lat="44.48566" lon="1.31036">
        <ele>118.9</ele>
        <time>2019-03-28T15:06:44Z</time>
      </trkpt>
      <trkpt lat="44.48574" lon="1.31043">
        <ele>117.6</ele>
        <time>2019-03-28T15:06:52Z</time>
      </trkpt>
      <trkpt lat="44.48582" lon="1.31047">
        <ele>116.3</ele>
        <time>2019-03-28T15:06:58Z</time>
      </trkpt>
      <trkpt lat="44.48589" lon="1.3104">
        <ele>114.8</ele>
        <time>2019-03-28T15:07:10Z</time>
      </trkpt>
      <trkpt lat="44.48588" lon="1.31028">
        <ele>113.5</ele>
        <time>2019-03-28T15:07:18Z</time>
      </trkpt>
      <trkpt lat="44.48585" lon="1.31017">
        <ele>111.9</ele>
        <time>2019-03-28T15:07:26Z</time>
      </trkpt>
      <trkpt lat="44.48581" lon="1.31007">
        <ele>110.8</ele>
        <time>2019-03-28T15:07:33Z</time>
      </trkpt>
      <trkpt lat="44.48577" lon="1.30997">
        <ele>109.9</ele>
        <time>2019-03-28T15:07:41Z</time>
      </trkpt>
      <trkpt lat="44.48571" lon="1.30988">
        <ele>109.6</ele>
        <time>2019-03-28T15:07:49Z</time>
      </trkpt>
      <trkpt lat="44.48564" lon="1.3098">
        <ele>109</ele>
        <time>2019-03-28T15:07:55Z</time>
      </trkpt>
      <trkpt lat="44.4856" lon="1.3097">
        <ele>107.5</ele>
        <time>2019-03-28T15:08:02Z</time>
      </trkpt>
      <trkpt lat="44.48564" lon="1.30962">
        <ele>106.4</ele>
        <time>2019-03-28T15:08:07Z</time>
      </trkpt>
      <trkpt lat="44.4857" lon="1.30957">
        <ele>105.6</ele>
        <time>2019-03-28T15:08:11Z</time>
      </trkpt>
      <trkpt lat="44.48577" lon="1.30955">
        <ele>105.1</ele>
        <time>2019-03-28T15:08:18Z</time>
      </trkpt>
      <trkpt lat="44.48585" lon="1.30955">
        <ele>104.8</ele>
        <time>2019-03-28T15:08:26Z</time>
      </trkpt>
      <trkpt lat="44.48593" lon="1.30951">
        <ele>104.5</ele>
        <time>2019-03-28T15:08:36Z</time>
      </trkpt>
      <trkpt lat="44.48599" lon="1.30941">
        <ele>104</ele>
        <time>2019-03-28T15:08:43Z</time>
      </trkpt>
      <trkpt lat="44.48604" lon="1.30931">
        <ele>104</ele>
        <time>2019-03-28T15:08:50Z</time>
      </trkpt>
      <trkpt lat="44.48606" lon="1.30919">
        <ele>104</ele>
        <time>2019-03-28T15:08:58Z</time>
      </trkpt>
      <trkpt lat="44.48609" lon="1.30909">
        <ele>104</ele>
        <time>2019-03-28T15:09:05Z</time>
      </trkpt>
      <trkpt lat="44.48611" lon="1.30899">
        <ele>104</ele>
        <time>2019-03-28T15:09:11Z</time>
      </trkpt>
      <trkpt lat="44.48613" lon="1.30887">
        <ele>103.9</ele>
        <time>2019-03-28T15:09:20Z</time>
      </trkpt>
      <trkpt lat="44.48615" lon="1.30876">
        <ele>103.9</ele>
        <time>2019-03-28T15:09:28Z</time>
      </trkpt>
      <trkpt lat="44.48618" lon="1.30865">
        <ele>103.8</ele>
        <time>2019-03-28T15:09:35Z</time>
      </trkpt>
      <trkpt lat="44.48622" lon="1.30854">
        <ele>103.6</ele>
        <time>2019-03-28T15:09:44Z</time>
      </trkpt>
      <trkpt lat="44.48625" lon="1.30842">
        <ele>103.5</ele>
        <time>2019-03-28T15:09:51Z</time>
      </trkpt>
      <trkpt lat="44.48625" lon="1.30833">
        <ele>103.5</ele>
        <time>2019-03-28T15:09:57Z</time>
      </trkpt>
      <trkpt lat="44.48628" lon="1.30821">
        <ele>103.7</ele>
        <time>2019-03-28T15:10:06Z</time>
      </trkpt>
      <trkpt lat="44.48634" lon="1.30813">
        <ele>103.8</ele>
        <time>2019-03-28T15:10:14Z</time>
      </trkpt>
      <trkpt lat="44.48639" lon="1.30802">
        <ele>104</ele>
        <time>2019-03-28T15:10:21Z</time>
      </trkpt>
      <trkpt lat="44.48641" lon="1.3079">
        <ele>103.9</ele>
        <time>2019-03-28T15:10:29Z</time>
      </trkpt>
      <trkpt lat="44.48644" lon="1.30779">
        <ele>103.8</ele>
        <time>2019-03-28T15:10:37Z</time>
      </trkpt>
      <trkpt lat="44.48646" lon="1.30768">
        <ele>103.6</ele>
        <time>2019-03-28T15:10:43Z</time>
      </trkpt>
      <trkpt lat="44.4865" lon="1.30759">
        <ele>103.5</ele>
        <time>2019-03-28T15:10:48Z</time>
      </trkpt>
      <trkpt lat="44.48652" lon="1.30749">
        <ele>103.5</ele>
        <time>2019-03-28T15:10:53Z</time>
      </trkpt>
      <trkpt lat="44.48653" lon="1.30739">
        <ele>103.5</ele>
        <time>2019-03-28T15:10:59Z</time>
      </trkpt>
      <trkpt lat="44.48656" lon="1.30727">
        <ele>103.6</ele>
        <time>2019-03-28T15:11:07Z</time>
      </trkpt>
      <trkpt lat="44.48661" lon="1.30717">
        <ele>103.8</ele>
        <time>2019-03-28T15:11:15Z</time>
      </trkpt>
      <trkpt lat="44.48663" lon="1.30706">
        <ele>103.9</ele>
        <time>2019-03-28T15:11:22Z</time>
      </trkpt>
      <trkpt lat="44.48665" lon="1.30694">
        <ele>103.9</ele>
        <time>2019-03-28T15:11:30Z</time>
      </trkpt>
      <trkpt lat="44.48668" lon="1.30683">
        <ele>103.6</ele>
        <time>2019-03-28T15:11:38Z</time>
      </trkpt>
      <trkpt lat="44.48669" lon="1.30671">
        <ele>103.2</ele>
        <time>2019-03-28T15:11:46Z</time>
      </trkpt>
      <trkpt lat="44.48674" lon="1.30663">
        <ele>103.1</ele>
        <time>2019-03-28T15:11:53Z</time>
      </trkpt>
      <trkpt lat="44.48681" lon="1.3066">
        <ele>103.2</ele>
        <time>2019-03-28T15:12:00Z</time>
      </trkpt>
      <trkpt lat="44.48689" lon="1.30659">
        <ele>103.3</ele>
        <time>2019-03-28T15:12:07Z</time>
      </trkpt>
      <trkpt lat="44.48697" lon="1.3066">
        <ele>103.5</ele>
        <time>2019-03-28T15:12:14Z</time>
      </trkpt>
      <trkpt lat="44.48705" lon="1.30661">
        <ele>103.4</ele>
        <time>2019-03-28T15:12:22Z</time>
      </trkpt>
      <trkpt lat="44.48713" lon="1.30661">
        <ele>103.2</ele>
        <time>2019-03-28T15:12:28Z</time>
      </trkpt>
      <trkpt lat="44.48721" lon="1.30661">
        <ele>103</ele>
        <time>2019-03-28T15:12:36Z</time>
      </trkpt>
      <trkpt lat="44.4873" lon="1.30662">
        <ele>103</ele>
        <time>2019-03-28T15:12:44Z</time>
      </trkpt>
      <trkpt lat="44.48738" lon="1.30665">
        <ele>103</ele>
        <time>2019-03-28T15:12:52Z</time>
      </trkpt>
      <trkpt lat="44.48745" lon="1.30667">
        <ele>103</ele>
        <time>2019-03-28T15:12:57Z</time>
      </trkpt>
      <trkpt lat="44.48754" lon="1.30669">
        <ele>103</ele>
        <time>2019-03-28T15:13:05Z</time>
      </trkpt>
      <trkpt lat="44.48762" lon="1.30671">
        <ele>103</ele>
        <time>2019-03-28T15:13:13Z</time>
      </trkpt>
      <trkpt lat="44.4877" lon="1.30674">
        <ele>103</ele>
        <time>2019-03-28T15:13:20Z</time>
      </trkpt>
      <trkpt lat="44.48777" lon="1.30679">
        <ele>103</ele>
        <time>2019-03-28T15:13:26Z</time>
      </trkpt>
      <trkpt lat="44.48786" lon="1.30681">
        <ele>103</ele>
        <time>2019-03-28T15:13:34Z</time>
      </trkpt>
      <trkpt lat="44.48793" lon="1.30684">
        <ele>103</ele>
        <time>2019-03-28T15:13:38Z</time>
      </trkpt>
      <trkpt lat="44.48801" lon="1.30688">
        <ele>103</ele>
        <time>2019-03-28T15:13:46Z</time>
      </trkpt>
      <trkpt lat="44.48809" lon="1.30692">
        <ele>103</ele>
        <time>2019-03-28T15:13:53Z</time>
      </trkpt>
      <trkpt lat="44.48817" lon="1.30695">
        <ele>103</ele>
        <time>2019-03-28T15:14:00Z</time>
      </trkpt>
      <trkpt lat="44.48825" lon="1.30698">
        <ele>103</ele>
        <time>2019-03-28T15:14:07Z</time>
      </trkpt>
      <trkpt lat="44.48832" lon="1.30701">
        <ele>103</ele>
        <time>2019-03-28T15:14:13Z</time>
      </trkpt>
      <trkpt lat="44.4884" lon="1.30704">
        <ele>103</ele>
        <time>2019-03-28T15:14:21Z</time>
      </trkpt>
      <trkpt lat="44.48848" lon="1.30707">
        <ele>103</ele>
        <time>2019-03-28T15:14:27Z</time>
      </trkpt>
      <trkpt lat="44.48855" lon="1.30711">
        <ele>103</ele>
        <time>2019-03-28T15:14:33Z</time>
      </trkpt>
      <trkpt lat="44.48863" lon="1.30715">
        <ele>103</ele>
        <time>2019-03-28T15:14:42Z</time>
      </trkpt>
      <trkpt lat="44.48871" lon="1.30718">
        <ele>102.9</ele>
        <time>2019-03-28T15:14:50Z</time>
      </trkpt>
      <trkpt lat="44.48878" lon="1.3072">
        <ele>103</ele>
        <time>2019-03-28T15:14:56Z</time>
      </trkpt>
      <trkpt lat="44.48884" lon="1.30723">
        <ele>103</ele>
        <time>2019-03-28T15:15:43Z</time>
      </trkpt>
      <trkpt lat="44.48892" lon="1.30726">
        <ele>103.1</ele>
        <time>2019-03-28T15:15:52Z</time>
      </trkpt>
      <trkpt lat="44.48899" lon="1.30733">
        <ele>103.2</ele>
        <time>2019-03-28T15:16:03Z</time>
      </trkpt>
      <trkpt lat="44.48907" lon="1.30733">
        <ele>103.1</ele>
        <time>2019-03-28T15:17:13Z</time>
      </trkpt>
      <trkpt lat="44.48915" lon="1.3074">
        <ele>103</ele>
        <time>2019-03-28T15:19:56Z</time>
      </trkpt>
      <trkpt lat="44.48923" lon="1.30742">
        <ele>103</ele>
        <time>2019-03-28T15:20:05Z</time>
      </trkpt>
      <trkpt lat="44.48932" lon="1.30743">
        <ele>103</ele>
        <time>2019-03-28T15:20:14Z</time>
      </trkpt>
      <trkpt lat="44.48938" lon="1.30744">
        <ele>103</ele>
        <time>2019-03-28T15:20:19Z</time>
      </trkpt>
      <trkpt lat="44.48947" lon="1.30745">
        <ele>103</ele>
        <time>2019-03-28T15:20:26Z</time>
      </trkpt>
      <trkpt lat="44.48954" lon="1.30747">
        <ele>103</ele>
        <time>2019-03-28T15:20:32Z</time>
      </trkpt>
      <trkpt lat="44.48961" lon="1.3075">
        <ele>103</ele>
        <time>2019-03-28T15:20:40Z</time>
      </trkpt>
      <trkpt lat="44.48969" lon="1.30753">
        <ele>103.1</ele>
        <time>2019-03-28T15:20:47Z</time>
      </trkpt>
      <trkpt lat="44.48975" lon="1.30757">
        <ele>103.2</ele>
        <time>2019-03-28T15:20:54Z</time>
      </trkpt>
      <trkpt lat="44.48983" lon="1.3076">
        <ele>103.2</ele>
        <time>2019-03-28T15:21:01Z</time>
      </trkpt>
      <trkpt lat="44.48991" lon="1.30764">
        <ele>103.2</ele>
        <time>2019-03-28T15:21:08Z</time>
      </trkpt>
      <trkpt lat="44.48999" lon="1.30767">
        <ele>103</ele>
        <time>2019-03-28T15:21:15Z</time>
      </trkpt>
      <trkpt lat="44.49006" lon="1.30769">
        <ele>102.9</ele>
        <time>2019-03-28T15:21:21Z</time>
      </trkpt>
      <trkpt lat="44.49015" lon="1.30772">
        <ele>102.9</ele>
        <time>2019-03-28T15:21:28Z</time>
      </trkpt>
      <trkpt lat="44.49022" lon="1.30777">
        <ele>103</ele>
        <time>2019-03-28T15:21:37Z</time>
      </trkpt>
      <trkpt lat="44.4903" lon="1.30782">
        <ele>103.1</ele>
        <time>2019-03-28T15:21:44Z</time>
      </trkpt>
      <trkpt lat="44.49039" lon="1.30784">
        <ele>102.8</ele>
        <time>2019-03-28T15:21:52Z</time>
      </trkpt>
      <trkpt lat="44.49047" lon="1.30786">
        <ele>102.6</ele>
        <time>2019-03-28T15:22:00Z</time>
      </trkpt>
      <trkpt lat="44.49055" lon="1.30791">
        <ele>102.5</ele>
        <time>2019-03-28T15:22:08Z</time>
      </trkpt>
      <trkpt lat="44.49061" lon="1.30795">
        <ele>102.7</ele>
        <time>2019-03-28T15:22:14Z</time>
      </trkpt>
      <trkpt lat="44.49067" lon="1.30799">
        <ele>102.9</ele>
        <time>2019-03-28T15:22:19Z</time>
      </trkpt>
      <trkpt lat="44.49072" lon="1.30802">
        <ele>102.9</ele>
        <time>2019-03-28T15:22:24Z</time>
      </trkpt>
      <trkpt lat="44.49079" lon="1.30805">
        <ele>103</ele>
        <time>2019-03-28T15:22:28Z</time>
      </trkpt>
      <trkpt lat="44.49087" lon="1.30809">
        <ele>103.1</ele>
        <time>2019-03-28T15:22:34Z</time>
      </trkpt>
      <trkpt lat="44.49094" lon="1.30812">
        <ele>103.2</ele>
        <time>2019-03-28T15:22:41Z</time>
      </trkpt>
      <trkpt lat="44.49101" lon="1.30813">
        <ele>103.3</ele>
        <time>2019-03-28T15:22:48Z</time>
      </trkpt>
      <trkpt lat="44.49109" lon="1.30818">
        <ele>103.4</ele>
        <time>2019-03-28T15:22:57Z</time>
      </trkpt>
      <trkpt lat="44.49117" lon="1.30823">
        <ele>103.5</ele>
        <time>2019-03-28T15:23:06Z</time>
      </trkpt>
      <trkpt lat="44.49124" lon="1.30827">
        <ele>103.7</ele>
        <time>2019-03-28T15:23:10Z</time>
      </trkpt>
      <trkpt lat="44.49132" lon="1.30829">
        <ele>103.7</ele>
        <time>2019-03-28T15:23:17Z</time>
      </trkpt>
      <trkpt lat="44.49135" lon="1.3083">
        <ele>103.8</ele>
      </trkpt>
      <trkpt lat="44.49139" lon="1.3083">
        <ele>103.8</ele>
      </trkpt>
      <trkpt lat="44.49142" lon="1.3083">
        <ele>103.7</ele>
      </trkpt>
      <trkpt lat="44.49146" lon="1.3083">
        <ele>103.5</ele>
      </trkpt>
      <trkpt lat="44.49149" lon="1.3083">
        <ele>103.4</ele>
      </trkpt>
      <trkpt lat="44.49153" lon="1.3083">
        <ele>103.3</ele>
      </trkpt>
      <trkpt lat="44.49155" lon="1.3083">
        <ele>103.2</ele>
      </trkpt>
      <trkpt lat="44.49158" lon="1.3083">
        <ele>103.2</ele>
      </trkpt>
      <trkpt lat="44.4916" lon="1.3083">
        <ele>103.1</ele>
      </trkpt>
      <trkpt lat="44.49163" lon="1.3083">
        <ele>103</ele>
      </trkpt>
      <trkpt lat="44.49167" lon="1.30829">
        <ele>102.8</ele>
      </trkpt>
      <trkpt lat="44.4917" lon="1.30831">
        <ele>102.9</ele>
      </trkpt>
      <trkpt lat="44.49173" lon="1.30834">
        <ele>103</ele>
      </trkpt>
      <trkpt lat="44.49176" lon="1.30837">
        <ele>103.2</ele>
      </trkpt>
      <trkpt lat="44.49178" lon="1.30841">
        <ele>103.4</ele>
      </trkpt>
      <trkpt lat="44.4918" lon="1.30845">
        <ele>103.6</ele>
      </trkpt>
      <trkpt lat="44.49182" lon="1.30849">
        <ele>103.8</ele>
      </trkpt>
      <trkpt lat="44.49185" lon="1.30853">
        <ele>103.9</ele>
      </trkpt>
      <trkpt lat="44.49185" lon="1.30858">
        <ele>104.2</ele>
      </trkpt>
      <trkpt lat="44.49185" lon="1.30864">
        <ele>104.4</ele>
      </trkpt>
      <trkpt lat="44.49186" lon="1.30874">
        <ele>104.6</ele>
      </trkpt>
      <trkpt lat="44.49185" lon="1.30877">
        <ele>104.7</ele>
      </trkpt>
      <trkpt lat="44.49185" lon="1.3088">
        <ele>104.8</ele>
      </trkpt>
      <trkpt lat="44.49183" lon="1.30884">
        <ele>104.9</ele>
      </trkpt>
      <trkpt lat="44.49183" lon="1.30887">
        <ele>105</ele>
      </trkpt>
      <trkpt lat="44.49183" lon="1.30891">
        <ele>105</ele>
      </trkpt>
      <trkpt lat="44.49182" lon="1.30895">
        <ele>105</ele>
      </trkpt>
      <trkpt lat="44.49181" lon="1.30898">
        <ele>105</ele>
      </trkpt>
      <trkpt lat="44.4918" lon="1.30902">
        <ele>105</ele>
      </trkpt>
      <trkpt lat="44.4918" lon="1.30904">
        <ele>105</ele>
      </trkpt>
      <trkpt lat="44.49179" lon="1.30908">
        <ele>105</ele>
      </trkpt>
      <trkpt lat="44.4918" lon="1.30912">
        <ele>105</ele>
      </trkpt>
      <trkpt lat="44.49179" lon="1.30915">
        <ele>105</ele>
      </trkpt>
      <trkpt lat="44.49178" lon="1.30919">
        <ele>105</ele>
      </trkpt>
      <trkpt lat="44.49179" lon="1.30921">
        <ele>104.9</ele>
      </trkpt>
      <trkpt lat="44.49178" lon="1.30926">
        <ele>104.8</ele>
      </trkpt>
      <trkpt lat="44.49178" lon="1.30929">
        <ele>104.7</ele>
      </trkpt>
      <trkpt lat="44.49176" lon="1.3093">
        <ele>104.7</ele>
      </trkpt>
      <trkpt lat="44.49174" lon="1.30935">
        <ele>104.5</ele>
      </trkpt>
      <trkpt lat="44.49174" lon="1.30939">
        <ele>104.4</ele>
      </trkpt>
      <trkpt lat="44.49174" lon="1.30943">
        <ele>104.3</ele>
      </trkpt>
      <trkpt lat="44.49173" lon="1.30947">
        <ele>104.3</ele>
      </trkpt>
      <trkpt lat="44.49173" lon="1.30951">
        <ele>104.4</ele>
      </trkpt>
      <trkpt lat="44.49171" lon="1.30955">
        <ele>104.5</ele>
      </trkpt>
      <trkpt lat="44.4917" lon="1.30958">
        <ele>104.5</ele>
      </trkpt>
      <trkpt lat="44.49172" lon="1.30962">
        <ele>104.7</ele>
      </trkpt>
      <trkpt lat="44.49172" lon="1.30966">
        <ele>104.8</ele>
      </trkpt>
      <trkpt lat="44.49172" lon="1.3097">
        <ele>104.9</ele>
      </trkpt>
      <trkpt lat="44.49172" lon="1.30975">
        <ele>105</ele>
      </trkpt>
      <trkpt lat="44.4917" lon="1.3098">
        <ele>105</ele>
      </trkpt>
      <trkpt lat="44.4917" lon="1.30984">
        <ele>105</ele>
      </trkpt>
      <trkpt lat="44.4917" lon="1.30988">
        <ele>105</ele>
      </trkpt>
      <trkpt lat="44.49167" lon="1.30994">
        <ele>105</ele>
      </trkpt>
      <trkpt lat="44.49167" lon="1.31">
        <ele>105</ele>
      </trkpt>
      <trkpt lat="44.49168" lon="1.31002">
        <ele>105</ele>
      </trkpt>
      <trkpt lat="44.49164" lon="1.31008">
        <ele>105</ele>
      </trkpt>
      <trkpt lat="44.49165" lon="1.31013">
        <ele>105</ele>
      </trkpt>
      <trkpt lat="44.49164" lon="1.31016">
        <ele>105</ele>
      </trkpt>
      <trkpt lat="44.49164" lon="1.3102">
        <ele>105</ele>
      </trkpt>
      <trkpt lat="44.49163" lon="1.31024">
        <ele>105</ele>
      </trkpt>
      <trkpt lat="44.49163" lon="1.31029">
        <ele>105</ele>
      </trkpt>
      <trkpt lat="44.49163" lon="1.31035">
        <ele>105</ele>
      </trkpt>
      <trkpt lat="44.49162" lon="1.31038">
        <ele>105</ele>
      </trkpt>
      <trkpt lat="44.49161" lon="1.31042">
        <ele>105</ele>
      </trkpt>
      <trkpt lat="44.49162" lon="1.31046">
        <ele>105</ele>
      </trkpt>
      <trkpt lat="44.49161" lon="1.31049">
        <ele>105</ele>
      </trkpt>
      <trkpt lat="44.4916" lon="1.31053">
        <ele>105</ele>
      </trkpt>
      <trkpt lat="44.4916" lon="1.31059">
        <ele>105</ele>
      </trkpt>
      <trkpt lat="44.49159" lon="1.31063">
        <ele>105.1</ele>
      </trkpt>
      <trkpt lat="44.49159" lon="1.31068">
        <ele>105.1</ele>
      </trkpt>
      <trkpt lat="44.49158" lon="1.31074">
        <ele>105.2</ele>
      </trkpt>
      <trkpt lat="44.49158" lon="1.31081">
        <ele>105.3</ele>
      </trkpt>
      <trkpt lat="44.49158" lon="1.31086">
        <ele>105.3</ele>
      </trkpt>
      <trkpt lat="44.49157" lon="1.31091">
        <ele>105.3</ele>
      </trkpt>
      <trkpt lat="44.49157" lon="1.31097">
        <ele>105.3</ele>
      </trkpt>
      <trkpt lat="44.49157" lon="1.31102">
        <ele>105.3</ele>
      </trkpt>
      <trkpt lat="44.49156" lon="1.31107">
        <ele>105.4</ele>
      </trkpt>
      <trkpt lat="44.49157" lon="1.31113">
        <ele>105.4</ele>
      </trkpt>
      <trkpt lat="44.49158" lon="1.31118">
        <ele>105.5</ele>
      </trkpt>
      <trkpt lat="44.49157" lon="1.31124">
        <ele>105.7</ele>
      </trkpt>
      <trkpt lat="44.49158" lon="1.31128">
        <ele>105.7</ele>
      </trkpt>
      <trkpt lat="44.49159" lon="1.31133">
        <ele>105.8</ele>
      </trkpt>
      <trkpt lat="44.49159" lon="1.31139">
        <ele>106</ele>
      </trkpt>
      <trkpt lat="44.49157" lon="1.31146">
        <ele>106.4</ele>
      </trkpt>
      <trkpt lat="44.49155" lon="1.31151">
        <ele>106.7</ele>
      </trkpt>
      <trkpt lat="44.49153" lon="1.31155">
        <ele>106.9</ele>
      </trkpt>
      <trkpt lat="44.49148" lon="1.31156">
        <ele>106.8</ele>
      </trkpt>
      <trkpt lat="44.49144" lon="1.31157">
        <ele>106.8</ele>
      </trkpt>
      <trkpt lat="44.49138" lon="1.31162">
        <ele>106.8</ele>
      </trkpt>
      <trkpt lat="44.49135" lon="1.31163">
        <ele>106.9</ele>
      </trkpt>
      <trkpt lat="44.49132" lon="1.31162">
        <ele>106.8</ele>
      </trkpt>
      <trkpt lat="44.4913" lon="1.31163">
        <ele>106.9</ele>
      </trkpt>
      <trkpt lat="44.49127" lon="1.31163">
        <ele>106.9</ele>
      </trkpt>
      <trkpt lat="44.49126" lon="1.31162">
        <ele>106.8</ele>
      </trkpt>
      <trkpt lat="44.49126" lon="1.31164">
        <ele>106.9</ele>
      </trkpt>
      <trkpt lat="44.49124" lon="1.31165">
        <ele>106.9</ele>
      </trkpt>
      <trkpt lat="44.49126" lon="1.31167">
        <ele>107</ele>
      </trkpt>
      <trkpt lat="44.49125" lon="1.31164">
        <ele>106.9</ele>
      </trkpt>
      <trkpt lat="44.49123" lon="1.31168">
        <ele>107</ele>
      </trkpt>
      <trkpt lat="44.49121" lon="1.31169">
        <ele>107</ele>
      </trkpt>
      <trkpt lat="44.49118" lon="1.31169">
        <ele>107</ele>
      </trkpt>
      <trkpt lat="44.49115" lon="1.31172">
        <ele>107</ele>
      </trkpt>
      <trkpt lat="44.49112" lon="1.31176">
        <ele>107</ele>
      </trkpt>
      <trkpt lat="44.49109" lon="1.31175">
        <ele>107</ele>
      </trkpt>
      <trkpt lat="44.49107" lon="1.31179">
        <ele>107</ele>
      </trkpt>
      <trkpt lat="44.49103" lon="1.3118">
        <ele>107</ele>
      </trkpt>
      <trkpt lat="44.49099" lon="1.31182">
        <ele>107</ele>
      </trkpt>
      <trkpt lat="44.49097" lon="1.31185">
        <ele>107</ele>
      </trkpt>
      <trkpt lat="44.49094" lon="1.31187">
        <ele>107</ele>
      </trkpt>
      <trkpt lat="44.49092" lon="1.31191">
        <ele>107</ele>
      </trkpt>
      <trkpt lat="44.49091" lon="1.31198">
        <ele>107</ele>
        <time>2019-03-28T15:47:59Z</time>
      </trkpt>
      <trkpt lat="44.49085" lon="1.31205">
        <ele>107</ele>
        <time>2019-03-28T15:48:07Z</time>
      </trkpt>
      <trkpt lat="44.49079" lon="1.31213">
        <ele>106.8</ele>
        <time>2019-03-28T15:48:15Z</time>
      </trkpt>
      <trkpt lat="44.49075" lon="1.31222">
        <ele>106.7</ele>
        <time>2019-03-28T15:48:22Z</time>
      </trkpt>
      <trkpt lat="44.49071" lon="1.31233">
        <ele>106.7</ele>
        <time>2019-03-28T15:49:10Z</time>
      </trkpt>
      <trkpt lat="44.49065" lon="1.31242">
        <ele>106.8</ele>
        <time>2019-03-28T15:49:29Z</time>
      </trkpt>
      <trkpt lat="44.49062" lon="1.31251">
        <ele>107</ele>
        <time>2019-03-28T15:49:36Z</time>
      </trkpt>
      <trkpt lat="44.49059" lon="1.31259">
        <ele>107</ele>
        <time>2019-03-28T15:49:42Z</time>
      </trkpt>
      <trkpt lat="44.49057" lon="1.31269">
        <ele>107</ele>
        <time>2019-03-28T15:49:48Z</time>
      </trkpt>
      <trkpt lat="44.49055" lon="1.31279">
        <ele>107</ele>
        <time>2019-03-28T15:49:54Z</time>
      </trkpt>
      <trkpt lat="44.49052" lon="1.3129">
        <ele>107.4</ele>
        <time>2019-03-28T15:50:01Z</time>
      </trkpt>
      <trkpt lat="44.49049" lon="1.31299">
        <ele>107.6</ele>
        <time>2019-03-28T15:50:08Z</time>
      </trkpt>
      <trkpt lat="44.49046" lon="1.31311">
        <ele>107.8</ele>
        <time>2019-03-28T15:50:16Z</time>
      </trkpt>
      <trkpt lat="44.49046" lon="1.3132">
        <ele>108</ele>
        <time>2019-03-28T15:50:21Z</time>
      </trkpt>
      <trkpt lat="44.49044" lon="1.3133">
        <ele>108.1</ele>
        <time>2019-03-28T15:50:27Z</time>
      </trkpt>
      <trkpt lat="44.49042" lon="1.31341">
        <ele>108</ele>
        <time>2019-03-28T15:50:33Z</time>
      </trkpt>
      <trkpt lat="44.4904" lon="1.3135">
        <ele>107.9</ele>
        <time>2019-03-28T15:50:45Z</time>
      </trkpt>
      <trkpt lat="44.4904" lon="1.3136">
        <ele>107.9</ele>
        <time>2019-03-28T15:50:51Z</time>
      </trkpt>
      <trkpt lat="44.49041" lon="1.3137">
        <ele>108.1</ele>
        <time>2019-03-28T15:50:57Z</time>
      </trkpt>
      <trkpt lat="44.49045" lon="1.31379">
        <ele>108.5</ele>
        <time>2019-03-28T15:51:03Z</time>
      </trkpt>
      <trkpt lat="44.4905" lon="1.31389">
        <ele>108.8</ele>
        <time>2019-03-28T15:51:10Z</time>
      </trkpt>
      <trkpt lat="44.49057" lon="1.31396">
        <ele>109.1</ele>
        <time>2019-03-28T15:51:16Z</time>
      </trkpt>
      <trkpt lat="44.49064" lon="1.31403">
        <ele>109.8</ele>
        <time>2019-03-28T15:51:24Z</time>
      </trkpt>
      <trkpt lat="44.49071" lon="1.3141">
        <ele>110.2</ele>
        <time>2019-03-28T15:51:32Z</time>
      </trkpt>
      <trkpt lat="44.49078" lon="1.31415">
        <ele>110.7</ele>
        <time>2019-03-28T15:51:38Z</time>
      </trkpt>
      <trkpt lat="44.49086" lon="1.3142">
        <ele>111.3</ele>
        <time>2019-03-28T15:51:45Z</time>
      </trkpt>
      <trkpt lat="44.49095" lon="1.31423">
        <ele>112</ele>
        <time>2019-03-28T15:51:54Z</time>
      </trkpt>
      <trkpt lat="44.49102" lon="1.31425">
        <ele>112.4</ele>
        <time>2019-03-28T15:52:01Z</time>
      </trkpt>
      <trkpt lat="44.49108" lon="1.31427">
        <ele>112.8</ele>
        <time>2019-03-28T15:52:06Z</time>
      </trkpt>
      <trkpt lat="44.49116" lon="1.31431">
        <ele>113.1</ele>
        <time>2019-03-28T15:52:11Z</time>
      </trkpt>
      <trkpt lat="44.49123" lon="1.31434">
        <ele>113.2</ele>
        <time>2019-03-28T15:52:17Z</time>
      </trkpt>
      <trkpt lat="44.4913" lon="1.31437">
        <ele>113.2</ele>
        <time>2019-03-28T15:52:23Z</time>
      </trkpt>
      <trkpt lat="44.49137" lon="1.31441">
        <ele>113.1</ele>
        <time>2019-03-28T15:52:30Z</time>
      </trkpt>
      <trkpt lat="44.49145" lon="1.31444">
        <ele>113.2</ele>
        <time>2019-03-28T15:52:36Z</time>
      </trkpt>
      <trkpt lat="44.49153" lon="1.31448">
        <ele>113.4</ele>
        <time>2019-03-28T15:52:42Z</time>
      </trkpt>
      <trkpt lat="44.49161" lon="1.31452">
        <ele>113.6</ele>
        <time>2019-03-28T15:52:48Z</time>
      </trkpt>
      <trkpt lat="44.49169" lon="1.31457">
        <ele>113.6</ele>
        <time>2019-03-28T15:52:53Z</time>
      </trkpt>
      <trkpt lat="44.49177" lon="1.3146">
        <ele>113.6</ele>
        <time>2019-03-28T15:52:59Z</time>
      </trkpt>
      <trkpt lat="44.49184" lon="1.31463">
        <ele>113.7</ele>
        <time>2019-03-28T15:53:06Z</time>
      </trkpt>
      <trkpt lat="44.49192" lon="1.31468">
        <ele>113.9</ele>
        <time>2019-03-28T15:53:11Z</time>
      </trkpt>
      <trkpt lat="44.49199" lon="1.31472">
        <ele>114</ele>
        <time>2019-03-28T15:53:16Z</time>
      </trkpt>
      <trkpt lat="44.49205" lon="1.31476">
        <ele>113.9</ele>
        <time>2019-03-28T15:53:21Z</time>
      </trkpt>
      <trkpt lat="44.49213" lon="1.31479">
        <ele>113.9</ele>
        <time>2019-03-28T15:53:27Z</time>
      </trkpt>
      <trkpt lat="44.49222" lon="1.31481">
        <ele>114</ele>
        <time>2019-03-28T15:53:34Z</time>
      </trkpt>
      <trkpt lat="44.4923" lon="1.31484">
        <ele>114</ele>
        <time>2019-03-28T15:53:41Z</time>
      </trkpt>
      <trkpt lat="44.49238" lon="1.31488">
        <ele>114</ele>
        <time>2019-03-28T15:53:48Z</time>
      </trkpt>
      <trkpt lat="44.49246" lon="1.31491">
        <ele>114</ele>
        <time>2019-03-28T15:53:57Z</time>
      </trkpt>
      <trkpt lat="44.49253" lon="1.31496">
        <ele>114</ele>
        <time>2019-03-28T15:54:05Z</time>
      </trkpt>
      <trkpt lat="44.49261" lon="1.315">
        <ele>114</ele>
        <time>2019-03-28T15:54:14Z</time>
      </trkpt>
      <trkpt lat="44.49269" lon="1.31503">
        <ele>113.9</ele>
        <time>2019-03-28T15:54:18Z</time>
      </trkpt>
      <trkpt lat="44.49277" lon="1.31508">
        <ele>113.7</ele>
        <time>2019-03-28T15:54:23Z</time>
      </trkpt>
      <trkpt lat="44.49284" lon="1.3151">
        <ele>113.5</ele>
        <time>2019-03-28T15:54:27Z</time>
      </trkpt>
      <trkpt lat="44.49289" lon="1.31513">
        <ele>113.3</ele>
        <time>2019-03-28T15:54:30Z</time>
      </trkpt>
      <trkpt lat="44.49299" lon="1.31516">
        <ele>113.1</ele>
        <time>2019-03-28T15:54:35Z</time>
      </trkpt>
      <trkpt lat="44.49305" lon="1.31519">
        <ele>113</ele>
        <time>2019-03-28T15:54:40Z</time>
      </trkpt>
      <trkpt lat="44.49313" lon="1.31522">
        <ele>113</ele>
        <time>2019-03-28T15:54:48Z</time>
      </trkpt>
      <trkpt lat="44.49322" lon="1.3152">
        <ele>113</ele>
        <time>2019-03-28T15:54:57Z</time>
      </trkpt>
      <trkpt lat="44.4933" lon="1.31519">
        <ele>113</ele>
        <time>2019-03-28T15:55:06Z</time>
      </trkpt>
      <trkpt lat="44.49337" lon="1.3152">
        <ele>113.1</ele>
        <time>2019-03-28T15:55:12Z</time>
      </trkpt>
      <trkpt lat="44.4934" lon="1.31532">
        <ele>113.2</ele>
        <time>2019-03-28T16:02:38Z</time>
      </trkpt>
      <trkpt lat="44.49346" lon="1.31524">
        <ele>113.4</ele>
        <time>2019-03-28T16:02:47Z</time>
      </trkpt>
      <trkpt lat="44.49348" lon="1.31534">
        <ele>113.5</ele>
        <time>2019-03-28T16:03:04Z</time>
      </trkpt>
      <trkpt lat="44.49357" lon="1.31536">
        <ele>113.9</ele>
        <time>2019-03-28T16:03:30Z</time>
      </trkpt>
      <trkpt lat="44.49364" lon="1.31541">
        <ele>114</ele>
        <time>2019-03-28T16:03:40Z</time>
      </trkpt>
      <trkpt lat="44.49372" lon="1.31544">
        <ele>114</ele>
        <time>2019-03-28T16:03:47Z</time>
      </trkpt>
      <trkpt lat="44.49379" lon="1.31546">
        <ele>114</ele>
        <time>2019-03-28T16:03:54Z</time>
      </trkpt>
      <trkpt lat="44.49387" lon="1.3155">
        <ele>114</ele>
        <time>2019-03-28T16:03:59Z</time>
      </trkpt>
      <trkpt lat="44.49395" lon="1.31556">
        <ele>113.8</ele>
        <time>2019-03-28T16:04:06Z</time>
      </trkpt>
      <trkpt lat="44.49403" lon="1.3156">
        <ele>113.5</ele>
        <time>2019-03-28T16:04:14Z</time>
      </trkpt>
      <trkpt lat="44.4941" lon="1.31567">
        <ele>113.2</ele>
        <time>2019-03-28T16:04:21Z</time>
      </trkpt>
      <trkpt lat="44.49417" lon="1.31574">
        <ele>113</ele>
        <time>2019-03-28T16:04:28Z</time>
      </trkpt>
      <trkpt lat="44.49424" lon="1.3158">
        <ele>113</ele>
        <time>2019-03-28T16:04:33Z</time>
      </trkpt>
      <trkpt lat="44.4943" lon="1.31589">
        <ele>113</ele>
        <time>2019-03-28T16:04:45Z</time>
      </trkpt>
      <trkpt lat="44.49438" lon="1.31594">
        <ele>113</ele>
        <time>2019-03-28T16:05:08Z</time>
      </trkpt>
      <trkpt lat="44.49446" lon="1.31598">
        <ele>112.9</ele>
        <time>2019-03-28T16:05:16Z</time>
      </trkpt>
      <trkpt lat="44.49454" lon="1.31602">
        <ele>112.7</ele>
        <time>2019-03-28T16:05:23Z</time>
      </trkpt>
      <trkpt lat="44.49461" lon="1.31605">
        <ele>112.4</ele>
        <time>2019-03-28T16:05:30Z</time>
      </trkpt>
      <trkpt lat="44.49468" lon="1.31608">
        <ele>112.2</ele>
        <time>2019-03-28T16:05:38Z</time>
      </trkpt>
      <trkpt lat="44.49475" lon="1.3161">
        <ele>111.9</ele>
        <time>2019-03-28T16:05:43Z</time>
      </trkpt>
      <trkpt lat="44.49482" lon="1.31612">
        <ele>111.7</ele>
        <time>2019-03-28T16:05:48Z</time>
      </trkpt>
      <trkpt lat="44.49491" lon="1.31614">
        <ele>111.4</ele>
        <time>2019-03-28T16:05:54Z</time>
      </trkpt>
      <trkpt lat="44.49498" lon="1.31615">
        <ele>111.2</ele>
        <time>2019-03-28T16:06:00Z</time>
      </trkpt>
      <trkpt lat="44.49507" lon="1.31616">
        <ele>110.9</ele>
        <time>2019-03-28T16:06:09Z</time>
      </trkpt>
      <trkpt lat="44.49514" lon="1.31622">
        <ele>110.7</ele>
        <time>2019-03-28T16:06:17Z</time>
      </trkpt>
      <trkpt lat="44.49521" lon="1.31629">
        <ele>110.4</ele>
        <time>2019-03-28T16:06:23Z</time>
      </trkpt>
      <trkpt lat="44.49529" lon="1.31636">
        <ele>110</ele>
        <time>2019-03-28T16:06:29Z</time>
      </trkpt>
      <trkpt lat="44.49536" lon="1.31641">
        <ele>109.7</ele>
        <time>2019-03-28T16:06:35Z</time>
      </trkpt>
      <trkpt lat="44.49541" lon="1.31646">
        <ele>109.6</ele>
        <time>2019-03-28T16:06:39Z</time>
      </trkpt>
      <trkpt lat="44.49549" lon="1.31652">
        <ele>109.6</ele>
        <time>2019-03-28T16:06:45Z</time>
      </trkpt>
      <trkpt lat="44.49556" lon="1.31658">
        <ele>109.7</ele>
        <time>2019-03-28T16:06:53Z</time>
      </trkpt>
      <trkpt lat="44.49563" lon="1.31664">
        <ele>109.4</ele>
        <time>2019-03-28T16:07:01Z</time>
      </trkpt>
      <trkpt lat="44.49571" lon="1.31669">
        <ele>108.9</ele>
        <time>2019-03-28T16:07:07Z</time>
      </trkpt>
      <trkpt lat="44.49578" lon="1.31675">
        <ele>108.6</ele>
        <time>2019-03-28T16:07:13Z</time>
      </trkpt>
      <trkpt lat="44.49583" lon="1.31681">
        <ele>108.5</ele>
        <time>2019-03-28T16:07:18Z</time>
      </trkpt>
      <trkpt lat="44.4959" lon="1.31687">
        <ele>108.6</ele>
        <time>2019-03-28T16:07:24Z</time>
      </trkpt>
      <trkpt lat="44.49597" lon="1.31693">
        <ele>108.5</ele>
        <time>2019-03-28T16:07:30Z</time>
      </trkpt>
      <trkpt lat="44.49604" lon="1.31699">
        <ele>108.3</ele>
        <time>2019-03-28T16:07:36Z</time>
      </trkpt>
      <trkpt lat="44.49611" lon="1.31706">
        <ele>108</ele>
        <time>2019-03-28T16:07:42Z</time>
      </trkpt>
      <trkpt lat="44.49618" lon="1.31712">
        <ele>107.9</ele>
        <time>2019-03-28T16:07:48Z</time>
      </trkpt>
      <trkpt lat="44.49625" lon="1.31717">
        <ele>107.9</ele>
        <time>2019-03-28T16:07:54Z</time>
      </trkpt>
      <trkpt lat="44.49632" lon="1.31723">
        <ele>108</ele>
        <time>2019-03-28T16:08:01Z</time>
      </trkpt>
      <trkpt lat="44.49639" lon="1.31731">
        <ele>108</ele>
        <time>2019-03-28T16:08:12Z</time>
      </trkpt>
      <trkpt lat="44.49646" lon="1.31738">
        <ele>107.7</ele>
        <time>2019-03-28T16:08:20Z</time>
      </trkpt>
      <trkpt lat="44.49653" lon="1.31744">
        <ele>107.5</ele>
        <time>2019-03-28T16:08:27Z</time>
      </trkpt>
      <trkpt lat="44.49659" lon="1.31751">
        <ele>107.3</ele>
        <time>2019-03-28T16:08:34Z</time>
      </trkpt>
      <trkpt lat="44.49666" lon="1.31758">
        <ele>107.3</ele>
        <time>2019-03-28T16:08:41Z</time>
      </trkpt>
      <trkpt lat="44.49673" lon="1.31764">
        <ele>107.4</ele>
        <time>2019-03-28T16:08:48Z</time>
      </trkpt>
      <trkpt lat="44.4968" lon="1.3177">
        <ele>107.4</ele>
        <time>2019-03-28T16:08:56Z</time>
      </trkpt>
      <trkpt lat="44.49687" lon="1.31778">
        <ele>107.3</ele>
        <time>2019-03-28T16:09:03Z</time>
      </trkpt>
      <trkpt lat="44.49693" lon="1.31784">
        <ele>107.1</ele>
        <time>2019-03-28T16:09:14Z</time>
      </trkpt>
      <trkpt lat="44.49699" lon="1.3179">
        <ele>107</ele>
        <time>2019-03-28T16:09:21Z</time>
      </trkpt>
      <trkpt lat="44.49705" lon="1.31796">
        <ele>107</ele>
        <time>2019-03-28T16:09:27Z</time>
      </trkpt>
      <trkpt lat="44.49711" lon="1.31803">
        <ele>107</ele>
        <time>2019-03-28T16:09:33Z</time>
      </trkpt>
      <trkpt lat="44.49717" lon="1.31811">
        <ele>107</ele>
        <time>2019-03-28T16:09:41Z</time>
      </trkpt>
      <trkpt lat="44.49724" lon="1.31819">
        <ele>107</ele>
        <time>2019-03-28T16:09:48Z</time>
      </trkpt>
      <trkpt lat="44.49728" lon="1.31828">
        <ele>107</ele>
        <time>2019-03-28T16:09:54Z</time>
      </trkpt>
      <trkpt lat="44.4973" lon="1.31837">
        <ele>107</ele>
        <time>2019-03-28T16:10:01Z</time>
      </trkpt>
      <trkpt lat="44.49733" lon="1.31849">
        <ele>107</ele>
        <time>2019-03-28T16:10:14Z</time>
      </trkpt>
      <trkpt lat="44.49731" lon="1.31861">
        <ele>107</ele>
        <time>2019-03-28T16:10:22Z</time>
      </trkpt>
      <trkpt lat="44.49728" lon="1.31871">
        <ele>107.3</ele>
        <time>2019-03-28T16:10:28Z</time>
      </trkpt>
      <trkpt lat="44.49725" lon="1.31882">
        <ele>107.7</ele>
        <time>2019-03-28T16:10:34Z</time>
      </trkpt>
      <trkpt lat="44.49721" lon="1.31892">
        <ele>107.9</ele>
        <time>2019-03-28T16:10:41Z</time>
      </trkpt>
      <trkpt lat="44.49719" lon="1.31904">
        <ele>107.5</ele>
        <time>2019-03-28T16:10:48Z</time>
      </trkpt>
      <trkpt lat="44.49716" lon="1.31913">
        <ele>107.3</ele>
        <time>2019-03-28T16:10:54Z</time>
      </trkpt>
      <trkpt lat="44.49712" lon="1.31924">
        <ele>107.4</ele>
        <time>2019-03-28T16:11:03Z</time>
      </trkpt>
      <trkpt lat="44.49708" lon="1.31934">
        <ele>107.5</ele>
        <time>2019-03-28T16:11:10Z</time>
      </trkpt>
      <trkpt lat="44.49705" lon="1.31945">
        <ele>107.6</ele>
        <time>2019-03-28T16:11:17Z</time>
      </trkpt>
      <trkpt lat="44.49703" lon="1.31956">
        <ele>108</ele>
        <time>2019-03-28T16:11:24Z</time>
      </trkpt>
      <trkpt lat="44.49701" lon="1.31965">
        <ele>108.3</ele>
        <time>2019-03-28T16:11:30Z</time>
      </trkpt>
      <trkpt lat="44.49697" lon="1.31975">
        <ele>108.8</ele>
        <time>2019-03-28T16:11:36Z</time>
      </trkpt>
      <trkpt lat="44.49694" lon="1.31986">
        <ele>109</ele>
        <time>2019-03-28T16:11:44Z</time>
      </trkpt>
      <trkpt lat="44.49694" lon="1.31999">
        <ele>109</ele>
        <time>2019-03-28T16:11:52Z</time>
      </trkpt>
      <trkpt lat="44.49698" lon="1.32008">
        <ele>108.9</ele>
        <time>2019-03-28T16:11:58Z</time>
      </trkpt>
      <trkpt lat="44.49706" lon="1.32014">
        <ele>108.6</ele>
        <time>2019-03-28T16:12:05Z</time>
      </trkpt>
      <trkpt lat="44.49714" lon="1.32019">
        <ele>108.3</ele>
        <time>2019-03-28T16:12:12Z</time>
      </trkpt>
      <trkpt lat="44.49721" lon="1.32022">
        <ele>108</ele>
        <time>2019-03-28T16:12:20Z</time>
      </trkpt>
      <trkpt lat="44.49728" lon="1.32024">
        <ele>107.8</ele>
        <time>2019-03-28T16:12:26Z</time>
      </trkpt>
      <trkpt lat="44.49735" lon="1.32028">
        <ele>107.5</ele>
        <time>2019-03-28T16:12:32Z</time>
      </trkpt>
      <trkpt lat="44.49743" lon="1.32033">
        <ele>107.3</ele>
        <time>2019-03-28T16:12:39Z</time>
      </trkpt>
      <trkpt lat="44.4975" lon="1.3204">
        <ele>107</ele>
        <time>2019-03-28T16:12:46Z</time>
      </trkpt>
      <trkpt lat="44.49754" lon="1.32049">
        <ele>107</ele>
        <time>2019-03-28T16:12:53Z</time>
      </trkpt>
      <trkpt lat="44.49755" lon="1.32061">
        <ele>107</ele>
        <time>2019-03-28T16:13:00Z</time>
      </trkpt>
      <trkpt lat="44.49753" lon="1.32072">
        <ele>107</ele>
        <time>2019-03-28T16:13:08Z</time>
      </trkpt>
      <trkpt lat="44.4975" lon="1.32081">
        <ele>107</ele>
        <time>2019-03-28T16:13:14Z</time>
      </trkpt>
      <trkpt lat="44.49746" lon="1.32092">
        <ele>107.1</ele>
        <time>2019-03-28T16:13:22Z</time>
      </trkpt>
      <trkpt lat="44.49744" lon="1.32102">
        <ele>107.2</ele>
        <time>2019-03-28T16:13:29Z</time>
      </trkpt>
      <trkpt lat="44.49741" lon="1.32112">
        <ele>107.3</ele>
        <time>2019-03-28T16:13:36Z</time>
      </trkpt>
      <trkpt lat="44.49738" lon="1.32121">
        <ele>107.4</ele>
        <time>2019-03-28T16:13:42Z</time>
      </trkpt>
      <trkpt lat="44.49734" lon="1.3213">
        <ele>107.6</ele>
        <time>2019-03-28T16:13:48Z</time>
      </trkpt>
      <trkpt lat="44.49732" lon="1.32139">
        <ele>107.6</ele>
        <time>2019-03-28T16:13:55Z</time>
      </trkpt>
      <trkpt lat="44.49729" lon="1.32148">
        <ele>107.8</ele>
        <time>2019-03-28T16:14:01Z</time>
      </trkpt>
      <trkpt lat="44.49725" lon="1.32159">
        <ele>107.9</ele>
        <time>2019-03-28T16:14:08Z</time>
      </trkpt>
      <trkpt lat="44.49722" lon="1.32168">
        <ele>108</ele>
        <time>2019-03-28T16:14:15Z</time>
      </trkpt>
      <trkpt lat="44.49718" lon="1.32178">
        <ele>108.2</ele>
        <time>2019-03-28T16:14:22Z</time>
      </trkpt>
      <trkpt lat="44.49714" lon="1.32187">
        <ele>108.3</ele>
        <time>2019-03-28T16:14:30Z</time>
      </trkpt>
      <trkpt lat="44.4971" lon="1.32195">
        <ele>108.4</ele>
        <time>2019-03-28T16:14:36Z</time>
      </trkpt>
      <trkpt lat="44.49705" lon="1.32204">
        <ele>108.5</ele>
        <time>2019-03-28T16:14:42Z</time>
      </trkpt>
      <trkpt lat="44.49701" lon="1.32213">
        <ele>108.6</ele>
        <time>2019-03-28T16:14:49Z</time>
      </trkpt>
      <trkpt lat="44.49697" lon="1.32223">
        <ele>108.8</ele>
        <time>2019-03-28T16:14:56Z</time>
      </trkpt>
      <trkpt lat="44.49692" lon="1.32233">
        <ele>108.6</ele>
        <time>2019-03-28T16:15:03Z</time>
      </trkpt>
      <trkpt lat="44.49687" lon="1.32243">
        <ele>108.3</ele>
        <time>2019-03-28T16:15:10Z</time>
      </trkpt>
      <trkpt lat="44.49682" lon="1.32252">
        <ele>107.9</ele>
        <time>2019-03-28T16:15:18Z</time>
      </trkpt>
      <trkpt lat="44.49674" lon="1.32257">
        <ele>107.7</ele>
        <time>2019-03-28T16:18:27Z</time>
      </trkpt>
      <trkpt lat="44.49667" lon="1.32262">
        <ele>107.6</ele>
        <time>2019-03-28T16:18:39Z</time>
      </trkpt>
      <trkpt lat="44.49659" lon="1.32266">
        <ele>107.7</ele>
        <time>2019-03-28T16:18:50Z</time>
      </trkpt>
      <trkpt lat="44.49652" lon="1.32273">
        <ele>107.7</ele>
        <time>2019-03-28T16:19:17Z</time>
      </trkpt>
      <trkpt lat="44.49644" lon="1.32276">
        <ele>107.9</ele>
        <time>2019-03-28T16:19:24Z</time>
      </trkpt>
      <trkpt lat="44.49636" lon="1.32279">
        <ele>108.1</ele>
        <time>2019-03-28T16:19:30Z</time>
      </trkpt>
      <trkpt lat="44.49628" lon="1.32281">
        <ele>108.2</ele>
        <time>2019-03-28T16:19:36Z</time>
      </trkpt>
      <trkpt lat="44.4962" lon="1.32282">
        <ele>108.4</ele>
        <time>2019-03-28T16:19:42Z</time>
      </trkpt>
      <trkpt lat="44.49612" lon="1.32288">
        <ele>108.2</ele>
        <time>2019-03-28T16:19:50Z</time>
      </trkpt>
      <trkpt lat="44.49606" lon="1.32294">
        <ele>107.9</ele>
        <time>2019-03-28T16:19:57Z</time>
      </trkpt>
      <trkpt lat="44.49598" lon="1.32298">
        <ele>107.9</ele>
        <time>2019-03-28T16:20:03Z</time>
      </trkpt>
      <trkpt lat="44.4959" lon="1.32303">
        <ele>107.9</ele>
        <time>2019-03-28T16:20:11Z</time>
      </trkpt>
      <trkpt lat="44.49582" lon="1.32306">
        <ele>108</ele>
        <time>2019-03-28T16:20:17Z</time>
      </trkpt>
      <trkpt lat="44.49574" lon="1.32308">
        <ele>108.2</ele>
        <time>2019-03-28T16:20:23Z</time>
      </trkpt>
      <trkpt lat="44.49566" lon="1.32309">
        <ele>108.4</ele>
        <time>2019-03-28T16:20:28Z</time>
      </trkpt>
      <trkpt lat="44.49558" lon="1.3231">
        <ele>108.6</ele>
        <time>2019-03-28T16:20:33Z</time>
      </trkpt>
      <trkpt lat="44.49551" lon="1.32313">
        <ele>108.5</ele>
        <time>2019-03-28T16:20:38Z</time>
      </trkpt>
      <trkpt lat="44.49543" lon="1.32316">
        <ele>108.4</ele>
        <time>2019-03-28T16:20:44Z</time>
      </trkpt>
      <trkpt lat="44.49535" lon="1.32319">
        <ele>108.4</ele>
        <time>2019-03-28T16:21:00Z</time>
      </trkpt>
      <trkpt lat="44.49527" lon="1.32325">
        <ele>108.3</ele>
        <time>2019-03-28T16:22:35Z</time>
      </trkpt>
      <trkpt lat="44.4952" lon="1.32331">
        <ele>108.4</ele>
        <time>2019-03-28T16:22:44Z</time>
      </trkpt>
      <trkpt lat="44.49512" lon="1.32334">
        <ele>108.5</ele>
        <time>2019-03-28T16:22:52Z</time>
      </trkpt>
      <trkpt lat="44.49503" lon="1.32337">
        <ele>108.6</ele>
        <time>2019-03-28T16:23:00Z</time>
      </trkpt>
      <trkpt lat="44.49495" lon="1.32342">
        <ele>108.6</ele>
        <time>2019-03-28T16:23:08Z</time>
      </trkpt>
      <trkpt lat="44.49488" lon="1.32348">
        <ele>108.4</ele>
        <time>2019-03-28T16:23:15Z</time>
      </trkpt>
      <trkpt lat="44.49481" lon="1.32353">
        <ele>108.3</ele>
        <time>2019-03-28T16:23:23Z</time>
      </trkpt>
      <trkpt lat="44.49473" lon="1.32356">
        <ele>108.3</ele>
        <time>2019-03-28T16:23:30Z</time>
      </trkpt>
      <trkpt lat="44.49464" lon="1.32358">
        <ele>108.2</ele>
        <time>2019-03-28T16:23:38Z</time>
      </trkpt>
      <trkpt lat="44.49456" lon="1.32359">
        <ele>108.2</ele>
        <time>2019-03-28T16:23:46Z</time>
      </trkpt>
      <trkpt lat="44.49448" lon="1.3236">
        <ele>108.1</ele>
        <time>2019-03-28T16:23:54Z</time>
      </trkpt>
      <trkpt lat="44.4944" lon="1.3236">
        <ele>108.1</ele>
        <time>2019-03-28T16:24:02Z</time>
      </trkpt>
      <trkpt lat="44.49433" lon="1.3236">
        <ele>108.1</ele>
        <time>2019-03-28T16:24:09Z</time>
      </trkpt>
      <trkpt lat="44.49425" lon="1.32358">
        <ele>108.3</ele>
        <time>2019-03-28T16:24:15Z</time>
      </trkpt>
      <trkpt lat="44.49417" lon="1.32357">
        <ele>108.4</ele>
        <time>2019-03-28T16:24:21Z</time>
      </trkpt>
      <trkpt lat="44.49409" lon="1.32355">
        <ele>108.7</ele>
        <time>2019-03-28T16:24:27Z</time>
      </trkpt>
      <trkpt lat="44.49401" lon="1.32354">
        <ele>108.9</ele>
        <time>2019-03-28T16:24:44Z</time>
      </trkpt>
      <trkpt lat="44.49394" lon="1.32352">
        <ele>109.3</ele>
        <time>2019-03-28T16:24:50Z</time>
      </trkpt>
      <trkpt lat="44.49387" lon="1.32351">
        <ele>109.4</ele>
        <time>2019-03-28T16:24:57Z</time>
      </trkpt>
      <trkpt lat="44.49378" lon="1.32348">
        <ele>109.3</ele>
        <time>2019-03-28T16:25:05Z</time>
      </trkpt>
      <trkpt lat="44.49371" lon="1.32346">
        <ele>109.2</ele>
        <time>2019-03-28T16:25:12Z</time>
      </trkpt>
      <trkpt lat="44.49362" lon="1.32343">
        <ele>109</ele>
        <time>2019-03-28T16:25:19Z</time>
      </trkpt>
      <trkpt lat="44.49354" lon="1.3234">
        <ele>109.1</ele>
        <time>2019-03-28T16:25:27Z</time>
      </trkpt>
      <trkpt lat="44.49347" lon="1.32335">
        <ele>109.3</ele>
        <time>2019-03-28T16:25:47Z</time>
      </trkpt>
      <trkpt lat="44.49339" lon="1.32329">
        <ele>109.6</ele>
        <time>2019-03-28T16:25:54Z</time>
      </trkpt>
      <trkpt lat="44.49331" lon="1.32326">
        <ele>109.7</ele>
        <time>2019-03-28T16:26:26Z</time>
      </trkpt>
      <trkpt lat="44.49323" lon="1.32322">
        <ele>110</ele>
        <time>2019-03-28T16:26:33Z</time>
      </trkpt>
      <trkpt lat="44.49316" lon="1.32318">
        <ele>110.4</ele>
        <time>2019-03-28T16:26:39Z</time>
      </trkpt>
      <trkpt lat="44.49308" lon="1.32315">
        <ele>110.7</ele>
        <time>2019-03-28T16:26:45Z</time>
      </trkpt>
      <trkpt lat="44.493" lon="1.32311">
        <ele>111.1</ele>
        <time>2019-03-28T16:26:51Z</time>
      </trkpt>
      <trkpt lat="44.49294" lon="1.32308">
        <ele>111.3</ele>
        <time>2019-03-28T16:26:57Z</time>
      </trkpt>
      <trkpt lat="44.49286" lon="1.32306">
        <ele>111.3</ele>
        <time>2019-03-28T16:27:04Z</time>
      </trkpt>
      <trkpt lat="44.49278" lon="1.323">
        <ele>111.6</ele>
        <time>2019-03-28T16:27:10Z</time>
      </trkpt>
      <trkpt lat="44.49274" lon="1.32293">
        <ele>112.5</ele>
        <time>2019-03-28T16:27:15Z</time>
      </trkpt>
      <trkpt lat="44.49269" lon="1.32283">
        <ele>113.8</ele>
        <time>2019-03-28T16:27:21Z</time>
      </trkpt>
      <trkpt lat="44.49267" lon="1.32273">
        <ele>114.5</ele>
        <time>2019-03-28T16:27:28Z</time>
      </trkpt>
      <trkpt lat="44.49268" lon="1.32264">
        <ele>114.7</ele>
        <time>2019-03-28T16:27:33Z</time>
      </trkpt>
      <trkpt lat="44.49268" lon="1.32251">
        <ele>115</ele>
        <time>2019-03-28T16:27:39Z</time>
      </trkpt>
      <trkpt lat="44.49269" lon="1.32239">
        <ele>115.1</ele>
        <time>2019-03-28T16:27:46Z</time>
      </trkpt>
      <trkpt lat="44.49271" lon="1.3223">
        <ele>115.2</ele>
        <time>2019-03-28T16:27:51Z</time>
      </trkpt>
      <trkpt lat="44.49273" lon="1.32218">
        <ele>115.3</ele>
        <time>2019-03-28T16:27:57Z</time>
      </trkpt>
      <trkpt lat="44.49275" lon="1.32207">
        <ele>115.6</ele>
        <time>2019-03-28T16:28:03Z</time>
      </trkpt>
      <trkpt lat="44.49277" lon="1.32196">
        <ele>115.9</ele>
        <time>2019-03-28T16:28:09Z</time>
      </trkpt>
      <trkpt lat="44.49277" lon="1.32185">
        <ele>116</ele>
        <time>2019-03-28T16:28:15Z</time>
      </trkpt>
      <trkpt lat="44.49278" lon="1.32175">
        <ele>116</ele>
        <time>2019-03-28T16:28:21Z</time>
      </trkpt>
      <trkpt lat="44.49281" lon="1.32165">
        <ele>116</ele>
        <time>2019-03-28T16:28:27Z</time>
      </trkpt>
      <trkpt lat="44.49283" lon="1.32155">
        <ele>116</ele>
        <time>2019-03-28T16:28:33Z</time>
      </trkpt>
      <trkpt lat="44.49285" lon="1.32143">
        <ele>116</ele>
        <time>2019-03-28T16:28:40Z</time>
      </trkpt>
      <trkpt lat="44.49288" lon="1.32133">
        <ele>116</ele>
        <time>2019-03-28T16:28:46Z</time>
      </trkpt>
      <trkpt lat="44.4929" lon="1.32121">
        <ele>116</ele>
        <time>2019-03-28T16:28:54Z</time>
      </trkpt>
      <trkpt lat="44.49292" lon="1.32112">
        <ele>116</ele>
        <time>2019-03-28T16:29:00Z</time>
      </trkpt>
      <trkpt lat="44.49293" lon="1.32102">
        <ele>115.9</ele>
        <time>2019-03-28T16:29:06Z</time>
      </trkpt>
      <trkpt lat="44.49294" lon="1.32091">
        <ele>115.7</ele>
        <time>2019-03-28T16:29:12Z</time>
      </trkpt>
      <trkpt lat="44.49297" lon="1.3208">
        <ele>115.7</ele>
        <time>2019-03-28T16:29:19Z</time>
      </trkpt>
      <trkpt lat="44.49298" lon="1.32072">
        <ele>115.8</ele>
        <time>2019-03-28T16:29:24Z</time>
      </trkpt>
      <trkpt lat="44.49302" lon="1.32062">
        <ele>116</ele>
        <time>2019-03-28T16:29:30Z</time>
      </trkpt>
      <trkpt lat="44.49305" lon="1.32052">
        <ele>115.9</ele>
        <time>2019-03-28T16:29:36Z</time>
      </trkpt>
      <trkpt lat="44.49308" lon="1.32041">
        <ele>115.4</ele>
        <time>2019-03-28T16:29:42Z</time>
      </trkpt>
      <trkpt lat="44.49311" lon="1.32032">
        <ele>115.1</ele>
        <time>2019-03-28T16:29:48Z</time>
      </trkpt>
      <trkpt lat="44.49315" lon="1.32021">
        <ele>115</ele>
        <time>2019-03-28T16:29:55Z</time>
      </trkpt>
      <trkpt lat="44.49318" lon="1.32011">
        <ele>115</ele>
        <time>2019-03-28T16:30:01Z</time>
      </trkpt>
      <trkpt lat="44.49321" lon="1.31999">
        <ele>115</ele>
        <time>2019-03-28T16:30:08Z</time>
      </trkpt>
      <trkpt lat="44.49325" lon="1.31989">
        <ele>115</ele>
        <time>2019-03-28T16:30:15Z</time>
      </trkpt>
      <trkpt lat="44.49329" lon="1.31979">
        <ele>115</ele>
        <time>2019-03-28T16:30:21Z</time>
      </trkpt>
      <trkpt lat="44.49332" lon="1.31969">
        <ele>115</ele>
        <time>2019-03-28T16:30:27Z</time>
      </trkpt>
      <trkpt lat="44.49335" lon="1.31958">
        <ele>115</ele>
        <time>2019-03-28T16:30:33Z</time>
      </trkpt>
      <trkpt lat="44.49338" lon="1.31948">
        <ele>115</ele>
        <time>2019-03-28T16:30:39Z</time>
      </trkpt>
      <trkpt lat="44.4934" lon="1.31937">
        <ele>115</ele>
        <time>2019-03-28T16:30:45Z</time>
      </trkpt>
      <trkpt lat="44.49341" lon="1.31926">
        <ele>115</ele>
        <time>2019-03-28T16:30:51Z</time>
      </trkpt>
      <trkpt lat="44.49341" lon="1.31914">
        <ele>114.9</ele>
        <time>2019-03-28T16:30:58Z</time>
      </trkpt>
      <trkpt lat="44.49339" lon="1.31902">
        <ele>114.5</ele>
        <time>2019-03-28T16:31:05Z</time>
      </trkpt>
      <trkpt lat="44.49335" lon="1.31892">
        <ele>114.1</ele>
        <time>2019-03-28T16:31:12Z</time>
      </trkpt>
      <trkpt lat="44.49331" lon="1.31885">
        <ele>114</ele>
        <time>2019-03-28T16:31:18Z</time>
      </trkpt>
      <trkpt lat="44.49325" lon="1.31881">
        <ele>114</ele>
        <time>2019-03-28T16:31:24Z</time>
      </trkpt>
      <trkpt lat="44.49317" lon="1.31877">
        <ele>114</ele>
        <time>2019-03-28T16:31:30Z</time>
      </trkpt>
      <trkpt lat="44.49309" lon="1.31874">
        <ele>114</ele>
        <time>2019-03-28T16:31:35Z</time>
      </trkpt>
      <trkpt lat="44.49302" lon="1.3187">
        <ele>114</ele>
        <time>2019-03-28T16:31:41Z</time>
      </trkpt>
      <trkpt lat="44.49294" lon="1.31864">
        <ele>114</ele>
        <time>2019-03-28T16:31:47Z</time>
      </trkpt>
      <trkpt lat="44.49287" lon="1.31856">
        <ele>114</ele>
        <time>2019-03-28T16:31:54Z</time>
      </trkpt>
      <trkpt lat="44.49282" lon="1.31849">
        <ele>114</ele>
        <time>2019-03-28T16:32:00Z</time>
      </trkpt>
      <trkpt lat="44.49278" lon="1.31839">
        <ele>114</ele>
        <time>2019-03-28T16:32:06Z</time>
      </trkpt>
      <trkpt lat="44.49278" lon="1.31827">
        <ele>114</ele>
        <time>2019-03-28T16:32:14Z</time>
      </trkpt>
      <trkpt lat="44.49279" lon="1.31814">
        <ele>114</ele>
        <time>2019-03-28T16:32:21Z</time>
      </trkpt>
      <trkpt lat="44.49278" lon="1.31803">
        <ele>113.9</ele>
        <time>2019-03-28T16:32:29Z</time>
      </trkpt>
      <trkpt lat="44.49273" lon="1.31794">
        <ele>113.5</ele>
        <time>2019-03-28T16:32:36Z</time>
      </trkpt>
      <trkpt lat="44.49266" lon="1.31788">
        <ele>113.2</ele>
        <time>2019-03-28T16:32:42Z</time>
      </trkpt>
      <trkpt lat="44.4926" lon="1.31782">
        <ele>113.1</ele>
        <time>2019-03-28T16:32:48Z</time>
      </trkpt>
      <trkpt lat="44.49255" lon="1.31776">
        <ele>113</ele>
        <time>2019-03-28T16:32:54Z</time>
      </trkpt>
      <trkpt lat="44.49247" lon="1.31769">
        <ele>113</ele>
        <time>2019-03-28T16:33:02Z</time>
      </trkpt>
      <trkpt lat="44.4924" lon="1.31762">
        <ele>113</ele>
        <time>2019-03-28T16:33:09Z</time>
      </trkpt>
      <trkpt lat="44.49234" lon="1.31755">
        <ele>113</ele>
        <time>2019-03-28T16:33:16Z</time>
      </trkpt>
      <trkpt lat="44.49226" lon="1.3175">
        <ele>113</ele>
        <time>2019-03-28T16:33:23Z</time>
      </trkpt>
      <trkpt lat="44.49219" lon="1.31744">
        <ele>112.9</ele>
        <time>2019-03-28T16:33:30Z</time>
      </trkpt>
      <trkpt lat="44.49213" lon="1.31738">
        <ele>112.7</ele>
        <time>2019-03-28T16:33:36Z</time>
      </trkpt>
      <trkpt lat="44.49206" lon="1.31733">
        <ele>112.4</ele>
        <time>2019-03-28T16:33:42Z</time>
      </trkpt>
      <trkpt lat="44.49199" lon="1.31726">
        <ele>112.2</ele>
        <time>2019-03-28T16:33:50Z</time>
      </trkpt>
      <trkpt lat="44.49193" lon="1.31719">
        <ele>112</ele>
        <time>2019-03-28T16:33:57Z</time>
      </trkpt>
      <trkpt lat="44.49188" lon="1.31714">
        <ele>112</ele>
        <time>2019-03-28T16:34:03Z</time>
      </trkpt>
      <trkpt lat="44.49181" lon="1.31709">
        <ele>112</ele>
        <time>2019-03-28T16:34:09Z</time>
      </trkpt>
      <trkpt lat="44.49175" lon="1.31704">
        <ele>112</ele>
        <time>2019-03-28T16:34:15Z</time>
      </trkpt>
      <trkpt lat="44.49168" lon="1.31697">
        <ele>112</ele>
        <time>2019-03-28T16:34:22Z</time>
      </trkpt>
      <trkpt lat="44.4916" lon="1.31692">
        <ele>111.8</ele>
        <time>2019-03-28T16:34:29Z</time>
      </trkpt>
      <trkpt lat="44.49154" lon="1.31688">
        <ele>111.5</ele>
        <time>2019-03-28T16:34:36Z</time>
      </trkpt>
      <trkpt lat="44.49146" lon="1.31685">
        <ele>111.3</ele>
        <time>2019-03-28T16:34:42Z</time>
      </trkpt>
      <trkpt lat="44.49139" lon="1.31684">
        <ele>111</ele>
        <time>2019-03-28T16:34:48Z</time>
      </trkpt>
      <trkpt lat="44.49131" lon="1.31684">
        <ele>111</ele>
        <time>2019-03-28T16:34:55Z</time>
      </trkpt>
      <trkpt lat="44.49123" lon="1.31685">
        <ele>111</ele>
        <time>2019-03-28T16:35:02Z</time>
      </trkpt>
      <trkpt lat="44.49116" lon="1.31684">
        <ele>111</ele>
        <time>2019-03-28T16:35:08Z</time>
      </trkpt>
      <trkpt lat="44.49107" lon="1.31684">
        <ele>111.1</ele>
        <time>2019-03-28T16:35:14Z</time>
      </trkpt>
      <trkpt lat="44.491" lon="1.31682">
        <ele>111.2</ele>
        <time>2019-03-28T16:35:21Z</time>
      </trkpt>
      <trkpt lat="44.49093" lon="1.31681">
        <ele>111.3</ele>
        <time>2019-03-28T16:35:28Z</time>
      </trkpt>
      <trkpt lat="44.49084" lon="1.31682">
        <ele>111.5</ele>
        <time>2019-03-28T16:35:35Z</time>
      </trkpt>
      <trkpt lat="44.49076" lon="1.31684">
        <ele>111.6</ele>
        <time>2019-03-28T16:35:42Z</time>
      </trkpt>
      <trkpt lat="44.49069" lon="1.31685">
        <ele>111.7</ele>
        <time>2019-03-28T16:35:48Z</time>
      </trkpt>
      <trkpt lat="44.49062" lon="1.31687">
        <ele>111.7</ele>
        <time>2019-03-28T16:35:54Z</time>
      </trkpt>
      <trkpt lat="44.49054" lon="1.31683">
        <ele>111.6</ele>
        <time>2019-03-28T16:36:02Z</time>
      </trkpt>
      <trkpt lat="44.49046" lon="1.31679">
        <ele>111.6</ele>
        <time>2019-03-28T16:36:10Z</time>
      </trkpt>
      <trkpt lat="44.49037" lon="1.31678">
        <ele>111.8</ele>
        <time>2019-03-28T16:36:17Z</time>
      </trkpt>
      <trkpt lat="44.49029" lon="1.31675">
        <ele>112</ele>
        <time>2019-03-28T16:36:24Z</time>
      </trkpt>
      <trkpt lat="44.49021" lon="1.31674">
        <ele>112.2</ele>
        <time>2019-03-28T16:36:32Z</time>
      </trkpt>
      <trkpt lat="44.49012" lon="1.31674">
        <ele>112.6</ele>
        <time>2019-03-28T16:36:39Z</time>
      </trkpt>
      <trkpt lat="44.49005" lon="1.31671">
        <ele>112.8</ele>
        <time>2019-03-28T16:36:46Z</time>
      </trkpt>
      <trkpt lat="44.48996" lon="1.31669">
        <ele>113</ele>
        <time>2019-03-28T16:36:53Z</time>
      </trkpt>
      <trkpt lat="44.48988" lon="1.31666">
        <ele>113</ele>
        <time>2019-03-28T16:37:00Z</time>
      </trkpt>
      <trkpt lat="44.48981" lon="1.31663">
        <ele>113</ele>
        <time>2019-03-28T16:37:08Z</time>
      </trkpt>
      <trkpt lat="44.48973" lon="1.3166">
        <ele>113</ele>
        <time>2019-03-28T16:37:15Z</time>
      </trkpt>
      <trkpt lat="44.48967" lon="1.31657">
        <ele>112.7</ele>
        <time>2019-03-28T16:37:21Z</time>
      </trkpt>
      <trkpt lat="44.48959" lon="1.31655">
        <ele>112.3</ele>
        <time>2019-03-28T16:37:27Z</time>
      </trkpt>
      <trkpt lat="44.48951" lon="1.31652">
        <ele>111.8</ele>
        <time>2019-03-28T16:37:36Z</time>
      </trkpt>
      <trkpt lat="44.48949" lon="1.3164">
        <ele>111.4</ele>
        <time>2019-03-28T16:37:44Z</time>
      </trkpt>
      <trkpt lat="44.48945" lon="1.3163">
        <ele>110.7</ele>
        <time>2019-03-28T16:37:51Z</time>
      </trkpt>
      <trkpt lat="44.48938" lon="1.31622">
        <ele>110.3</ele>
        <time>2019-03-28T16:37:58Z</time>
      </trkpt>
      <trkpt lat="44.48931" lon="1.31616">
        <ele>110.1</ele>
        <time>2019-03-28T16:38:06Z</time>
      </trkpt>
      <trkpt lat="44.48924" lon="1.31609">
        <ele>110</ele>
        <time>2019-03-28T16:38:14Z</time>
      </trkpt>
      <trkpt lat="44.48919" lon="1.31602">
        <ele>110</ele>
        <time>2019-03-28T16:38:20Z</time>
      </trkpt>
      <trkpt lat="44.48913" lon="1.31594">
        <ele>110</ele>
        <time>2019-03-28T16:38:27Z</time>
      </trkpt>
      <trkpt lat="44.48905" lon="1.31595">
        <ele>110</ele>
        <time>2019-03-28T16:38:36Z</time>
      </trkpt>
      <trkpt lat="44.48898" lon="1.31598">
        <ele>110</ele>
        <time>2019-03-28T16:38:48Z</time>
      </trkpt>
      <trkpt lat="44.48894" lon="1.31599">
        <ele>110</ele>
        <time>2019-03-28T16:38:53Z</time>
      </trkpt>
      <trkpt lat="44.48894" lon="1.31599">
        <ele>110</ele>
        <time>2019-03-28T16:38:54Z</time>
      </trkpt>
    </trkseg>
  </trk>
</gpx>